SU1501 / VP-BII 7700 Squawk Report (8th of April, 2020)

Aircraft A320 Reg No. VP-BII Age 2 years old
Model A320 Jet engines 2 First flight 21-02-18
Registered 23-03-18 Rollout N/A Delivered 26-03-18
Construction No. 8133 Line No. N/A Series 214(SL)
ADSHEX 424398 Airline name Aeroflot Russian Airlines Owner N/A
Airfield based Moscow-Sheremetyevo~Moscow~RA First tracked N/A

Flight history for VP-BII

Route Flight No Date Playback
Omsk (OMS) - Sheremetyevo (SVO) SU1763 2020-04-17 03:13:00
Sheremetyevo (SVO) - Omsk (OMS) SU1762 2020-04-17 00:08:00
Simferopol Intl (SIP) - Sheremetyevo (SVO) SU1645 2020-04-13 10:19:00
Sheremetyevo (SVO) - Simferopol Intl (SIP) SU1644 2020-04-13 06:19:00
Khrabrovo (KGD) - Sheremetyevo (SVO) SU1011 2020-04-10 18:04:00
Sheremetyevo (SVO) - Khrabrovo (KGD) SU1010 2020-04-10 15:22:00
Uytash (MCX) - Sheremetyevo (SVO) SU1053 2020-04-10 13:36:00
Sheremetyevo (SVO) - Uytash (MCX) SU1052 2020-04-10 07:10:00
Khrabrovo (KGD) - Sheremetyevo (SVO) SU1011 2020-04-09 18:08:00
Sheremetyevo (SVO) - Khrabrovo (KGD) SU1010 2020-04-09 15:27:00
Khrabrovo (KGD) - Sheremetyevo (SVO) SU1003 2020-04-09 11:43:00
Sheremetyevo (SVO) - Khrabrovo (KGD) SU1002 2020-04-09 09:00:00
Roschino (TJM) - Sheremetyevo (SVO) SU1501 2020-04-08 11:53:00
Sheremetyevo (SVO) - Roschino (TJM) SU1500 2020-04-08 08:03:00
Khrabrovo (KGD) - Sheremetyevo (SVO) SU1011 2020-04-08 05:24:00
Sheremetyevo (SVO) - Khrabrovo (KGD) SU1010 2020-04-07 16:30:00
Ufa (UFA) - Sheremetyevo (SVO) SU1235 2020-04-07 13:33:00
Sheremetyevo (SVO) - Ufa (UFA) SU1238 2020-04-07 03:03:00
Beslan Airport (OGZ) - Sheremetyevo (SVO) SU1043 2020-04-06 11:13:00
Sheremetyevo (SVO) - Beslan Airport (OGZ) SU1042 2020-04-06 06:43:00
Time Lat Lon Altitude Heading Speed Vertical Rate
2020-04-08 11:52:19 GMT 55.978577 37.415291 0 75 0 0
2020-04-08 11:52:11 GMT 55.978844 37.416771 0 75 0 0
2020-04-08 11:52:01 GMT 55.978832 37.416710 0 75 2 0
2020-04-08 11:51:50 GMT 55.978809 37.416538 0 75 5 0
2020-04-08 11:51:37 GMT 55.978729 37.415958 0 75 7 0
2020-04-08 11:51:28 GMT 55.978668 37.415527 0 64 8 0
2020-04-08 11:51:19 GMT 55.978565 37.415100 0 16 7 0
2020-04-08 11:51:10 GMT 55.978264 37.415054 0 345 12 0
2020-04-08 11:50:59 GMT 55.977665 37.415337 0 345 13 0
2020-04-08 11:50:49 GMT 55.977135 37.415592 0 343 12 0
2020-04-08 11:50:37 GMT 55.976585 37.415871 0 343 10 0
2020-04-08 11:50:20 GMT 55.975891 37.415752 0 70 11 0
2020-04-08 11:50:17 GMT 55.975834 37.415482 0 73 14 0
2020-04-08 11:50:08 GMT 55.975670 37.414326 0 75 21 0
2020-04-08 11:49:57 GMT 55.975365 37.412277 0 75 29 0
2020-04-08 11:49:48 GMT 55.975040 37.410099 0 75 29 0
2020-04-08 11:49:37 GMT 55.974689 37.407719 0 75 29 0
2020-04-08 11:49:27 GMT 55.974319 37.405228 0 75 27 0
2020-04-08 11:49:15 GMT 55.973969 37.402912 0 75 26 0
2020-04-08 11:48:56 GMT 55.973396 37.399155 0 75 24 0
2020-04-08 11:48:46 GMT 55.973053 37.396793 0 73 24 0
2020-04-08 11:48:31 GMT 55.972698 37.394520 0 73 23 0
2020-04-08 11:48:24 GMT 55.972504 37.393192 0 75 23 0
2020-04-08 11:48:11 GMT 55.972176 37.391026 0 75 22 0
2020-04-08 11:48:04 GMT 55.971966 37.389606 0 75 20 0
2020-04-08 11:47:53 GMT 55.971745 37.388126 0 75 15 0
2020-04-08 11:47:43 GMT 55.971611 37.387077 0 67 11 0
2020-04-08 11:47:17 GMT 55.970249 37.386932 0 345 15 0
2020-04-08 11:47:12 GMT 55.969978 37.387054 0 345 15 0
2020-04-08 11:46:36 GMT 55.967697 37.388103 0 312 12 0
2020-04-08 11:46:26 GMT 55.967499 37.388771 0 261 14 0
2020-04-08 11:46:16 GMT 55.967636 37.389908 0 255 22 0
2020-04-08 11:46:08 GMT 55.967903 37.391613 0 255 33 0
2020-04-08 11:45:53 GMT 55.968567 37.396065 0 255 38 0
2020-04-08 11:45:47 GMT 55.968773 37.397484 0 255 39 0
2020-04-08 11:45:36 GMT 55.969315 37.401043 0 255 43 0
2020-04-08 11:45:26 GMT 55.969814 37.404430 0 255 46 0
2020-04-08 11:45:17 GMT 55.970352 37.408009 0 255 51 0
2020-04-08 11:45:05 GMT 55.971176 37.413441 0 255 57 0
2020-04-08 11:44:53 GMT 55.971909 37.418404 0 255 70 0
2020-04-08 11:44:45 GMT 55.972652 37.423405 0 255 88 0
2020-04-08 11:44:27 GMT 55.974838 37.437912 525 255 123 -128
2020-04-08 11:44:23 GMT 55.975616 37.443485 575 255 126 -768
2020-04-08 11:44:17 GMT 55.976273 37.447674 650 255 126 -832
2020-04-08 11:44:14 GMT 55.977448 37.455639 975 256 124 -512
2020-04-08 11:44:03 GMT 55.978409 37.462132 875 255 125 -768
2020-04-08 11:43:59 GMT 55.979050 37.466373 850 255 126 -832
2020-04-08 11:43:53 GMT 55.979858 37.471874 900 255 126 -640
2020-04-08 11:43:46 GMT 55.980972 37.478943 975 256 124 -512
2020-04-08 11:43:43 GMT 55.981625 37.483723 1,025 255 127 -704
2020-04-08 11:43:39 GMT 55.982231 37.487755 1,075 255 127 -896
2020-04-08 11:43:29 GMT 55.983627 37.496765 1,200 256 125 -448
2020-04-08 11:43:21 GMT 55.984699 37.504147 1,275 256 122 -512
2020-04-08 11:43:18 GMT 55.985069 37.506981 1,300 255 122 -640
2020-04-08 11:43:12 GMT 55.985962 37.512733 1,350 256 124 -512
2020-04-08 11:43:08 GMT 55.987701 37.524471 1,475 256 127 -960
2020-04-08 11:43:01 GMT 55.987701 37.524471 1,475 256 128 -640
2020-04-08 11:42:58 GMT 55.988251 37.528214 1,525 255 127 -576
2020-04-08 11:42:52 GMT 55.989075 37.533760 1,600 256 130 -768
2020-04-08 11:42:49 GMT 55.989586 37.537365 1,625 255 132 -640
2020-04-08 11:42:45 GMT 55.990128 37.540699 1,675 255 134 -896
2020-04-08 11:42:41 GMT 55.991543 37.550156 2,025 256 154 -896
2020-04-08 11:42:37 GMT 55.991543 37.550156 1,800 255 137 -832
2020-04-08 11:42:30 GMT 55.992599 37.557346 1,875 256 143 -704
2020-04-08 11:42:27 GMT 55.992985 37.560024 1,900 256 148 -640
2020-04-08 11:42:24 GMT 55.993496 37.563717 1,925 255 153 -704
2020-04-08 11:42:20 GMT 55.994427 37.569897 2,025 256 154 -960
2020-04-08 11:42:17 GMT 55.994801 37.572212 2,075 256 154 -768
2020-04-08 11:42:11 GMT 55.995918 37.580025 2,150 256 155 -768
2020-04-08 11:42:08 GMT 55.996582 37.584396 2,150 255 156 -704
2020-04-08 11:42:00 GMT 55.998047 37.594383 2,250 256 163 -1088
2020-04-08 11:41:57 GMT 55.998665 37.598560 2,300 256 164 -1024
2020-04-08 11:41:50 GMT 55.999832 37.606369 2,475 256 164 -1024
2020-04-08 11:41:46 GMT 56.000748 37.612610 2,475 256 164 -1024
2020-04-08 11:41:42 GMT 56.001572 37.618019 2,575 256 162 -64
2020-04-08 11:41:39 GMT 56.001968 37.620708 2,575 256 162 -448
2020-04-08 11:41:36 GMT 56.002487 37.624344 2,550 256 163 384
2020-04-08 11:41:33 GMT 56.003086 37.628174 2,550 256 164 320
2020-04-08 11:41:30 GMT 56.003738 37.632809 2,550 256 166 0
2020-04-08 11:41:26 GMT 56.004578 37.638645 2,550 255 168 64
2020-04-08 11:41:20 GMT 56.005783 37.646484 2,550 256 172 -64
2020-04-08 11:41:17 GMT 56.006561 37.651810 2,550 256 175 320
2020-04-08 11:41:12 GMT 56.007416 37.657700 2,550 256 175 256
2020-04-08 11:41:06 GMT 56.009949 37.675198 2,550 256 184 0
2020-04-08 11:41:00 GMT 56.010162 37.676582 2,550 256 184 64
2020-04-08 11:40:56 GMT 56.010681 37.680107 2,550 256 186 0
2020-04-08 11:40:52 GMT 56.011871 37.688351 2,550 256 191 -64
2020-04-08 11:40:49 GMT 56.012302 37.691257 2,550 256 193 -64
2020-04-08 11:40:46 GMT 56.012909 37.695377 2,550 256 195 0
2020-04-08 11:40:36 GMT 56.015144 37.710743 2,575 256 203 0
2020-04-08 11:40:27 GMT 56.017548 37.728050 2,550 257 212 -64
2020-04-08 11:40:20 GMT 56.019009 37.738895 2,575 261 228 64
2020-04-08 11:40:16 GMT 56.019745 37.745277 2,575 260 224 0
2020-04-08 11:40:12 GMT 56.020660 37.753517 2,575 263 230 64
2020-04-08 11:40:04 GMT 56.021660 37.768681 2,575 271 238 -256
2020-04-08 11:39:55 GMT 56.021523 37.784901 2,625 274 243 -576
2020-04-08 11:39:45 GMT 56.020935 37.804871 2,800 274 246 -1344
2020-04-08 11:39:36 GMT 56.020172 37.826015 3,050 274 248 -1408
2020-04-08 11:39:25 GMT 56.019379 37.846901 3,300 273 251 -1536
2020-04-08 11:39:15 GMT 56.018829 37.868294 3,525 272 253 -1728
2020-04-08 11:39:10 GMT 56.018692 37.879360 3,800 268 258 -1344
2020-04-08 11:39:04 GMT 56.018776 37.890388 3,800 268 258 -1408
2020-04-08 11:39:01 GMT 56.018913 37.897854 3,900 267 258 -1792
2020-04-08 11:38:55 GMT 56.019287 37.910824 4,100 267 257 -1984
2020-04-08 11:38:51 GMT 56.019562 37.919064 4,450 267 256 -1024
2020-04-08 11:38:44 GMT 56.020077 37.932701 4,425 267 255 -1344
2020-04-08 11:38:41 GMT 56.020359 37.941368 4,525 267 256 -512
2020-04-08 11:38:38 GMT 56.020523 37.947277 4,500 267 257 -320
2020-04-08 11:38:34 GMT 56.020779 37.953987 4,525 267 257 -512
2020-04-08 11:38:30 GMT 56.021072 37.962757 4,575 267 256 -128
2020-04-08 11:38:26 GMT 56.021336 37.970123 4,550 267 258 -128
2020-04-08 11:38:23 GMT 56.021530 37.976574 4,575 267 257 -192
2020-04-08 11:38:20 GMT 56.021805 37.983982 4,575 267 257 -128
2020-04-08 11:38:17 GMT 56.022034 37.990555 4,575 267 254 -192
2020-04-08 11:38:13 GMT 56.022308 37.998795 4,625 267 253 -384
2020-04-08 11:38:09 GMT 56.022629 38.007786 4,600 267 253 -384
2020-04-08 11:38:04 GMT 56.023087 38.019852 4,650 267 254 -832
2020-04-08 11:37:59 GMT 56.023361 38.027176 4,725 267 258 -1472
2020-04-08 11:37:50 GMT 56.024082 38.048313 4,900 267 257 -1408
2020-04-08 11:37:41 GMT 56.024918 38.070873 5,175 267 259 -1472
2020-04-08 11:37:37 GMT 56.025105 38.076210 5,225 267 259 -1472
2020-04-08 11:37:29 GMT 56.025650 38.091846 5,575 267 262 -1408
2020-04-08 11:37:26 GMT 56.025944 38.098698 5,500 267 260 -1472
2020-04-08 11:37:21 GMT 56.026245 38.108994 5,600 267 262 -1472
2020-04-08 11:37:18 GMT 56.026474 38.115650 5,675 267 262 -1408
2020-04-08 11:37:14 GMT 56.026703 38.123642 5,775 267 263 -1536
2020-04-08 11:37:11 GMT 56.026978 38.132130 5,875 267 264 -1664
2020-04-08 11:37:06 GMT 56.027340 38.142384 6,000 267 264 -1792
2020-04-08 11:36:58 GMT 56.027851 38.158867 6,225 267 264 -1792
2020-04-08 11:36:55 GMT 56.028030 38.164505 6,300 267 264 -1600
2020-04-08 11:36:50 GMT 56.028488 38.178238 6,475 267 264 -1920
2020-04-08 11:36:47 GMT 56.028671 38.184982 6,600 267 263 -2240
2020-04-08 11:36:40 GMT 56.029110 38.197746 6,800 267 262 -1984
2020-04-08 11:36:37 GMT 56.029297 38.204014 6,900 267 262 -1984
2020-04-08 11:36:32 GMT 56.029667 38.215942 7,075 267 261 -1856
2020-04-08 11:36:26 GMT 56.030090 38.229507 7,200 267 261 -1792
2020-04-08 11:36:21 GMT 56.030415 38.238945 7,375 267 261 -1536
2020-04-08 11:36:16 GMT 56.030785 38.250618 7,475 267 262 -1152
2020-04-08 11:36:10 GMT 56.031158 38.262032 7,575 267 263 -960
2020-04-08 11:36:06 GMT 56.031437 38.270103 7,650 267 265 -1024
2020-04-08 11:36:02 GMT 56.031715 38.279545 7,725 267 266 -1088
2020-04-08 11:35:59 GMT 56.031967 38.287437 7,775 267 268 -1216
2020-04-08 11:35:55 GMT 56.032333 38.298672 7,825 267 268 -1408
2020-04-08 11:35:51 GMT 56.032562 38.305580 7,975 267 270 -1472
2020-04-08 11:35:46 GMT 56.032883 38.315819 8,175 267 272 -1408
2020-04-08 11:35:42 GMT 56.033112 38.323643 8,150 267 272 -1408
2020-04-08 11:35:39 GMT 56.033394 38.332157 8,350 267 274 -1472
2020-04-08 11:35:36 GMT 56.033581 38.337994 8,425 267 274 -1472
2020-04-08 11:35:30 GMT 56.033997 38.352497 8,475 267 275 -1536
2020-04-08 11:35:26 GMT 56.034279 38.360825 9,050 267 277 -1408
2020-04-08 11:35:21 GMT 56.034622 38.372414 9,050 267 277 -1408
2020-04-08 11:35:16 GMT 56.035034 38.386314 8,925 267 276 -1792
2020-04-08 11:35:13 GMT 56.035160 38.390865 8,975 267 277 -1600
2020-04-08 11:35:09 GMT 56.035488 38.401592 9,075 268 277 -1408
2020-04-08 11:35:05 GMT 56.035671 38.408630 9,125 268 278 -1280
2020-04-08 11:35:02 GMT 56.035858 38.414383 9,200 268 279 -1344
2020-04-08 11:34:59 GMT 56.036091 38.422195 9,300 267 280 -1472
2020-04-08 11:34:55 GMT 56.036362 38.432175 9,425 267 281 -1536
2020-04-08 11:34:52 GMT 56.036510 38.437469 9,450 267 281 -1664
2020-04-08 11:34:45 GMT 56.037140 38.458305 9,725 267 282 -1600
2020-04-08 11:34:42 GMT 56.037231 38.460636 9,750 267 283 -1472
2020-04-08 11:34:35 GMT 56.037735 38.478367 9,900 267 286 -704
2020-04-08 11:34:32 GMT 56.037956 38.484936 9,975 267 289 -896
2020-04-08 11:34:24 GMT 56.038559 38.504250 10,025 267 292 -768
2020-04-08 11:34:21 GMT 56.038788 38.511658 10,075 267 294 -640
2020-04-08 11:34:14 GMT 56.039352 38.529484 10,150 267 298 -640
2020-04-08 11:34:11 GMT 56.039585 38.536777 10,200 267 300 -640
2020-04-08 11:34:05 GMT 56.040051 38.552139 10,250 267 304 -640
2020-04-08 11:34:02 GMT 56.040283 38.559437 10,275 267 305 -704
2020-04-08 11:33:57 GMT 56.040607 38.570766 10,350 267 307 -1024
2020-04-08 11:33:54 GMT 56.040802 38.577076 10,400 267 308 -1152
2020-04-08 11:33:51 GMT 56.041031 38.584484 10,400 267 308 -1216
2020-04-08 11:33:44 GMT 56.041679 38.606815 10,675 267 310 -1536
2020-04-08 11:33:41 GMT 56.041809 38.610703 10,700 267 310 -1536
2020-04-08 11:33:31 GMT 56.042610 38.636768 10,975 267 311 -1536
2020-04-08 11:33:21 GMT 56.043365 38.662968 11,225 268 313 -1536
2020-04-08 11:33:14 GMT 56.043915 38.681614 11,425 268 315 -1600
2020-04-08 11:33:11 GMT 56.044147 38.689384 11,500 268 315 -1536
2020-04-08 11:33:03 GMT 56.044704 38.710754 11,700 268 317 -1536
2020-04-08 11:33:00 GMT 56.044876 38.716488 11,775 268 317 -1600
2020-04-08 11:32:53 GMT 56.045635 38.743713 12,000 268 319 -1600
2020-04-08 11:32:42 GMT 56.046249 38.765091 12,250 267 320 -1536
2020-04-08 11:32:39 GMT 56.046429 38.770664 12,300 267 321 -1536
2020-04-08 11:32:32 GMT 56.047218 38.797958 12,525 268 322 -1600
2020-04-08 11:32:29 GMT 56.047218 38.797958 12,575 268 323 -1600
2020-04-08 11:32:20 GMT 56.047943 38.824352 12,850 268 324 -1600
2020-04-08 11:32:09 GMT 56.048676 38.851402 13,100 268 326 -1600
2020-04-08 11:32:02 GMT 56.049316 38.875038 13,350 268 327 -1600
2020-04-08 11:31:59 GMT 56.049454 38.879616 13,400 268 327 -1600
2020-04-08 11:31:51 GMT 56.050011 38.901470 13,625 268 329 -1600
2020-04-08 11:31:41 GMT 56.050735 38.928391 13,950 268 330 -1664
2020-04-08 11:31:38 GMT 56.050896 38.934944 13,950 268 330 -1664
2020-04-08 11:31:35 GMT 56.051193 38.946865 14,075 268 332 -1600
2020-04-08 11:31:29 GMT 56.051605 38.962181 14,250 268 334 -1664
2020-04-08 11:31:26 GMT 56.051788 38.968758 14,300 268 332 -1600
2020-04-08 11:31:21 GMT 56.052246 38.985760 14,450 268 333 -1600
2020-04-08 11:31:18 GMT 56.052383 38.990978 14,500 268 333 -1600
2020-04-08 11:31:15 GMT 56.052567 38.999466 14,600 268 333 -1600
2020-04-08 11:31:10 GMT 56.052990 39.014854 14,750 268 334 -1664
2020-04-08 11:31:07 GMT 56.053410 39.031075 14,925 268 334 -1664
2020-04-08 11:31:01 GMT 56.053711 39.042416 15,025 268 335 -1728
2020-04-08 11:30:58 GMT 56.053848 39.047409 15,075 268 335 -1728
2020-04-08 11:30:54 GMT 56.054077 39.055981 15,175 268 335 -1728
2020-04-08 11:30:48 GMT 56.054527 39.073906 15,400 268 336 -1600
2020-04-08 11:30:44 GMT 56.054760 39.084206 15,450 268 336 -1600
2020-04-08 11:30:37 GMT 56.055267 39.103588 15,625 268 337 -1600
2020-04-08 11:30:27 GMT 56.055954 39.132217 15,900 268 338 -1600
2020-04-08 11:30:17 GMT 56.056732 39.162014 16,200 268 338 -1600
2020-04-08 11:30:10 GMT 56.057182 39.181023 16,400 268 339 -1664
2020-04-08 11:30:06 GMT 56.057365 39.189693 16,475 268 339 -1600
2020-04-08 11:30:03 GMT 56.057648 39.199989 16,575 268 339 -1600
2020-04-08 11:29:59 GMT 56.057831 39.209263 16,725 268 340 -1600
2020-04-08 11:29:56 GMT 56.058105 39.220444 16,775 268 341 -1664
2020-04-08 11:29:48 GMT 56.058609 39.241749 16,950 268 340 -1664
2020-04-08 11:29:45 GMT 56.058746 39.247658 17,125 268 341 -1664
2020-04-08 11:29:39 GMT 56.059231 39.268227 17,225 268 341 -1664
2020-04-08 11:29:36 GMT 56.059414 39.275780 17,300 268 342 -1664
2020-04-08 11:29:31 GMT 56.059753 39.288773 17,425 268 342 -1664
2020-04-08 11:29:28 GMT 56.059982 39.298679 17,525 268 343 -1664
2020-04-08 11:29:25 GMT 56.060253 39.311054 17,650 268 343 -1664
2020-04-08 11:29:19 GMT 56.060623 39.324703 17,800 268 344 -1664
2020-04-08 11:29:16 GMT 56.060764 39.331741 17,850 268 344 -1664
2020-04-08 11:29:13 GMT 56.060951 39.339123 17,925 268 345 -1664
2020-04-08 11:29:08 GMT 56.061371 39.355602 18,100 268 346 -1664
2020-04-08 11:29:05 GMT 56.061462 39.360752 18,125 268 346 -1664
2020-04-08 11:29:02 GMT 56.061722 39.371006 18,725 268 347 -1728
2020-04-08 11:28:56 GMT 56.062180 39.389896 18,425 268 348 -1664
2020-04-08 11:28:53 GMT 56.062363 39.398804 18,500 268 348 -1664
2020-04-08 11:28:48 GMT 56.062859 39.419205 18,700 268 349 -1664
2020-04-08 11:28:42 GMT 56.063049 39.427853 18,775 268 350 -1664
2020-04-08 11:28:35 GMT 56.063553 39.449158 19,000 268 351 -1664
2020-04-08 11:28:32 GMT 56.063744 39.457314 19,075 268 351 -1664
2020-04-08 11:28:28 GMT 56.064056 39.470047 19,225 268 352 -1728
2020-04-08 11:28:25 GMT 56.064209 39.477310 19,275 268 352 -1728
2020-04-08 11:28:19 GMT 56.064629 39.496193 19,450 268 354 -1728
2020-04-08 11:28:15 GMT 56.064926 39.509083 19,575 268 354 -1664
2020-04-08 11:28:12 GMT 56.065140 39.519024 19,675 268 354 -1728
2020-04-08 11:28:07 GMT 56.065559 39.538593 19,850 268 355 -1728
2020-04-08 11:28:04 GMT 56.065559 39.538593 19,875 268 356 -1728
2020-04-08 11:28:01 GMT 56.065750 39.547367 19,950 268 356 -1664
2020-04-08 11:27:57 GMT 56.066025 39.559708 20,225 268 358 -1728
2020-04-08 11:27:54 GMT 56.066212 39.568893 20,150 268 357 -1728
2020-04-08 11:27:51 GMT 56.066353 39.577389 20,250 268 358 -1728
2020-04-08 11:27:47 GMT 56.066631 39.590694 20,450 268 359 -1792
2020-04-08 11:27:43 GMT 56.066818 39.599277 20,450 268 359 -1792
2020-04-08 11:27:40 GMT 56.066986 39.608212 20,550 268 360 -1728
2020-04-08 11:27:34 GMT 56.067421 39.629230 20,750 268 361 -1792
2020-04-08 11:27:31 GMT 56.067627 39.638756 20,850 268 361 -1856
2020-04-08 11:27:27 GMT 56.067856 39.650406 21,000 268 362 -1920
2020-04-08 11:27:23 GMT 56.068085 39.661476 21,100 268 362 -1920
2020-04-08 11:27:20 GMT 56.068359 39.674877 21,225 268 363 -1920
2020-04-08 11:27:16 GMT 56.068451 39.680286 21,300 268 363 -1920
2020-04-08 11:27:13 GMT 56.068630 39.689915 21,400 268 363 -1920
2020-04-08 11:27:08 GMT 56.069046 39.710831 21,600 268 364 -1920
2020-04-08 11:27:05 GMT 56.069099 39.713600 22,000 269 366 -1920
2020-04-08 11:27:02 GMT 56.069283 39.722271 21,725 269 365 -1856
2020-04-08 11:26:56 GMT 56.069656 39.741840 22,000 269 366 -1920
2020-04-08 11:26:53 GMT 56.069870 39.752697 22,050 269 366 -1920
2020-04-08 11:26:45 GMT 56.070282 39.776917 22,300 268 369 -1856
2020-04-08 11:26:42 GMT 56.070419 39.784489 22,375 269 368 -1856
2020-04-08 11:26:34 GMT 56.070969 39.813705 22,650 268 370 -1856
2020-04-08 11:26:31 GMT 56.071014 39.815536 22,700 268 370 -1856
2020-04-08 11:26:25 GMT 56.071426 39.835999 22,950 268 371 -1920
2020-04-08 11:26:22 GMT 56.071659 39.845524 23,000 268 372 -1984
2020-04-08 11:26:12 GMT 56.072266 39.877193 23,350 269 373 -1984
2020-04-08 11:26:05 GMT 56.072662 39.897850 23,550 269 375 -1920
2020-04-08 11:26:01 GMT 56.072891 39.909920 23,675 269 375 -1984
2020-04-08 11:25:55 GMT 56.073288 39.930668 23,925 269 376 -1984
2020-04-08 11:25:51 GMT 56.073441 39.941212 24,025 269 377 -1984
2020-04-08 11:25:45 GMT 56.073799 39.960449 24,325 269 379 -1984
2020-04-08 11:25:40 GMT 56.074036 39.973503 24,375 269 378 -2048
2020-04-08 11:25:31 GMT 56.074631 40.005051 24,700 269 379 -1984
2020-04-08 11:25:20 GMT 56.075226 40.037342 25,050 269 381 -1984
2020-04-08 11:25:12 GMT 56.075729 40.065060 25,325 269 383 -1984
2020-04-08 11:25:03 GMT 56.076221 40.094776 25,650 269 384 -2048
2020-04-08 11:25:00 GMT 56.076324 40.100761 25,725 269 384 -2048
2020-04-08 11:24:54 GMT 56.076691 40.122986 25,950 269 385 -2112
2020-04-08 11:24:50 GMT 56.076874 40.134720 26,100 269 385 -2112
2020-04-08 11:24:42 GMT 56.077290 40.158546 26,300 269 386 -2048
2020-04-08 11:24:39 GMT 56.077423 40.166515 26,425 269 386 -2048
2020-04-08 11:24:32 GMT 56.077759 40.188503 27,000 269 388 -2112
2020-04-08 11:24:29 GMT 56.077972 40.199390 26,750 269 388 -2112
2020-04-08 11:24:22 GMT 56.078293 40.221447 27,450 269 390 -2112
2020-04-08 11:24:18 GMT 56.078476 40.232349 27,150 269 389 -2112
2020-04-08 11:24:13 GMT 56.078827 40.253220 27,375 269 390 -2112
2020-04-08 11:24:09 GMT 56.079025 40.266140 27,525 269 390 -2048
2020-04-08 11:24:03 GMT 56.079292 40.285748 27,725 269 391 -2112
2020-04-08 11:23:58 GMT 56.079479 40.298367 27,850 269 392 -2048
2020-04-08 11:23:50 GMT 56.079895 40.326485 28,150 269 393 -2112
2020-04-08 11:23:47 GMT 56.080132 40.340080 28,300 269 393 -2112
2020-04-08 11:23:38 GMT 56.080490 40.365101 28,575 269 394 -2112
2020-04-08 11:23:29 GMT 56.080875 40.393124 28,875 269 395 -2112
2020-04-08 11:23:26 GMT 56.081062 40.407112 29,025 269 396 -2112
2020-04-08 11:23:19 GMT 56.081341 40.425739 29,650 269 398 -2176
2020-04-08 11:23:12 GMT 56.081726 40.450912 29,575 269 397 -2176
2020-04-08 11:23:08 GMT 56.081947 40.463333 29,650 269 398 -2176
2020-04-08 11:23:05 GMT 56.082092 40.473885 29,750 269 398 -2112
2020-04-08 11:22:58 GMT 56.082413 40.492947 30,200 269 400 -2112
2020-04-08 11:22:54 GMT 56.082645 40.507362 30,125 269 400 -2112
2020-04-08 11:22:50 GMT 56.082825 40.519241 30,250 269 400 -2112
2020-04-08 11:22:47 GMT 56.082970 40.528824 32,975 269 412 -2176
2020-04-08 11:22:43 GMT 56.083157 40.542381 30,475 269 401 -2048
2020-04-08 11:22:37 GMT 56.083485 40.567272 30,750 269 402 -2112
2020-04-08 11:22:33 GMT 56.083576 40.574570 30,825 269 403 -2112
2020-04-08 11:22:30 GMT 56.083714 40.587528 30,950 269 403 -2112
2020-04-08 11:22:27 GMT 56.083809 40.594482 31,050 269 403 -2112
2020-04-08 11:22:24 GMT 56.084015 40.611130 31,200 269 404 -2176
2020-04-08 11:22:18 GMT 56.084244 40.629772 31,475 269 406 -2112
2020-04-08 11:22:13 GMT 56.084427 40.642838 31,550 269 406 -2112
2020-04-08 11:22:06 GMT 56.084747 40.665646 31,850 269 407 -2112
2020-04-08 11:22:02 GMT 56.084930 40.678043 31,925 269 408 -2112
2020-04-08 11:21:59 GMT 56.085114 40.691860 32,075 269 408 -2176
2020-04-08 11:21:56 GMT 56.085205 40.701344 32,275 269 410 -2112
2020-04-08 11:21:53 GMT 56.085342 40.712086 32,275 269 409 -2112
2020-04-08 11:21:45 GMT 56.085575 40.736103 32,525 269 411 -2112
2020-04-08 11:21:40 GMT 56.085800 40.756115 32,750 269 411 -2176
2020-04-08 11:21:35 GMT 56.085949 40.768974 32,900 269 412 -2176
2020-04-08 11:21:31 GMT 56.086090 40.782883 33,025 269 412 -2176
2020-04-08 11:21:25 GMT 56.086349 40.803307 33,250 269 413 -2176
2020-04-08 11:21:22 GMT 56.086510 40.817642 33,400 269 414 -2176
2020-04-08 11:21:14 GMT 56.086807 40.847000 33,725 269 416 -2176
2020-04-08 11:21:11 GMT 56.086853 40.852493 33,775 269 415 -2176
2020-04-08 11:21:04 GMT 56.087128 40.876549 34,025 269 417 -2112
2020-04-08 11:21:00 GMT 56.087265 40.890614 34,175 269 417 -2112
2020-04-08 11:20:55 GMT 56.087486 40.908878 34,350 269 418 -2176
2020-04-08 11:20:51 GMT 56.087631 40.922657 34,500 269 419 -2112
2020-04-08 11:20:44 GMT 56.087906 40.945442 34,750 269 419 -2112
2020-04-08 11:20:41 GMT 56.088043 40.958946 34,875 269 420 -2112
2020-04-08 11:20:34 GMT 56.088318 40.981503 35,200 269 421 -2176
2020-04-08 11:20:30 GMT 56.088501 40.995731 36,225 270 436 -896
2020-04-08 11:20:24 GMT 56.088684 41.014462 35,475 270 422 -2176
2020-04-08 11:20:20 GMT 56.088837 41.029732 35,625 270 422 -2240
2020-04-08 11:20:14 GMT 56.089024 41.050327 35,800 270 422 -2176
2020-04-08 11:20:09 GMT 56.089161 41.067410 36,050 270 423 -2304
2020-04-08 11:20:03 GMT 56.089325 41.086536 36,250 270 424 -2240
2020-04-08 11:20:00 GMT 56.089439 41.101227 36,400 270 424 -2240
2020-04-08 11:19:55 GMT 56.089600 41.115917 36,700 270 425 -2240
2020-04-08 11:19:52 GMT 56.089737 41.130318 36,700 270 425 -2240
2020-04-08 11:19:49 GMT 56.089783 41.136974 36,775 270 426 -2176
2020-04-08 11:19:43 GMT 56.090000 41.166203 37,050 270 428 -2240
2020-04-08 11:19:39 GMT 56.090057 41.173264 37,125 270 428 -2112
2020-04-08 11:19:34 GMT 56.090195 41.196236 37,350 270 430 -1728
2020-04-08 11:19:28 GMT 56.090332 41.211800 37,450 270 431 -1472
2020-04-08 11:19:25 GMT 56.090420 41.225338 37,550 270 431 -1216
2020-04-08 11:19:19 GMT 56.090515 41.247005 37,650 270 433 -960
2020-04-08 11:19:12 GMT 56.090698 41.269543 37,750 270 434 -1024
2020-04-08 11:19:08 GMT 56.090839 41.284218 37,800 270 435 -1024
2020-04-08 11:19:02 GMT 56.090927 41.302933 37,900 270 436 -832
2020-04-08 11:18:58 GMT 56.091064 41.320496 37,950 270 436 -448
2020-04-08 11:18:53 GMT 56.091209 41.339581 37,975 270 436 64
2020-04-08 11:18:50 GMT 56.091305 41.348164 38,000 270 436 64
2020-04-08 11:18:47 GMT 56.091339 41.356869 37,975 270 436 64
2020-04-08 11:18:42 GMT 56.091492 41.378033 37,975 270 436 64
2020-04-08 11:18:38 GMT 56.091629 41.394253 37,975 270 435 0
2020-04-08 11:18:34 GMT 56.091751 41.418289 37,975 270 435 0
2020-04-08 11:18:26 GMT 56.091908 41.439487 38,000 270 435 0
2020-04-08 11:18:22 GMT 56.092026 41.452332 37,975 270 435 0
2020-04-08 11:18:15 GMT 56.092236 41.476048 38,000 270 435 -64
2020-04-08 11:18:11 GMT 56.092327 41.487206 38,000 270 434 -64
2020-04-08 11:18:04 GMT 56.092484 41.512589 38,000 270 434 0
2020-04-08 11:18:01 GMT 56.092560 41.525490 38,000 270 434 0
2020-04-08 11:17:50 GMT 56.092838 41.563084 38,000 270 434 0
2020-04-08 11:17:41 GMT 56.093025 41.599903 38,000 270 434 -64
2020-04-08 11:17:35 GMT 56.093166 41.627110 38,000 270 434 -64
2020-04-08 11:17:32 GMT 56.093166 41.627110 38,025 270 434 -64
2020-04-08 11:17:29 GMT 56.093212 41.636040 38,025 270 433 0
2020-04-08 11:17:22 GMT 56.093353 41.662819 38,025 270 433 64
2020-04-08 11:17:19 GMT 56.093399 41.673203 38,000 270 433 0
2020-04-08 11:17:15 GMT 56.093445 41.688622 38,000 270 433 64
2020-04-08 11:17:12 GMT 56.093491 41.698952 38,000 270 433 0
2020-04-08 11:17:09 GMT 56.093536 41.711094 38,000 270 433 0
2020-04-08 11:17:06 GMT 56.093536 41.724014 38,000 270 433 0
2020-04-08 11:17:01 GMT 56.093582 41.735771 38,000 270 434 0
2020-04-08 11:16:55 GMT 56.093678 41.758003 38,000 270 434 0
2020-04-08 11:16:52 GMT 56.093719 41.772598 38,000 270 434 0
2020-04-08 11:16:45 GMT 56.093765 41.795486 38,000 270 431 0
2020-04-08 11:16:41 GMT 56.093819 41.807697 38,000 270 431 0
2020-04-08 11:16:38 GMT 56.093857 41.819126 38,000 270 434 0
2020-04-08 11:16:34 GMT 56.093910 41.835251 38,000 270 433 0
2020-04-08 11:16:31 GMT 56.093956 41.845291 38,000 270 433 0
2020-04-08 11:16:28 GMT 56.094002 41.858513 38,000 270 433 0
2020-04-08 11:16:21 GMT 56.094086 41.880966 38,000 270 433 0
2020-04-08 11:16:18 GMT 56.094131 41.894199 38,000 270 433 0
2020-04-08 11:16:11 GMT 56.094223 41.917835 38,000 270 433 0
2020-04-08 11:16:07 GMT 56.094234 41.930695 38,000 270 433 -64
2020-04-08 11:16:00 GMT 56.094330 41.954987 38,000 270 433 0
2020-04-08 11:15:50 GMT 56.094421 41.991718 38,000 270 432 0
2020-04-08 11:15:47 GMT 56.094406 42.002396 38,000 270 432 0
2020-04-08 11:15:38 GMT 56.094467 42.037041 38,000 270 432 0
2020-04-08 11:15:30 GMT 56.094467 42.063389 38,000 270 432 0
2020-04-08 11:15:27 GMT 56.094498 42.074059 38,000 270 432 0
2020-04-08 11:15:19 GMT 56.094498 42.100441 38,000 271 432 0
2020-04-08 11:15:16 GMT 56.094498 42.112179 38,000 271 432 0
2020-04-08 11:15:09 GMT 56.094452 42.137894 38,000 271 432 0
2020-04-08 11:15:05 GMT 56.094452 42.154625 38,000 270 432 0
2020-04-08 11:14:57 GMT 56.094452 42.185585 38,000 270 432 0
2020-04-08 11:14:49 GMT 56.094421 42.209129 38,025 270 432 -64
2020-04-08 11:14:45 GMT 56.094421 42.222946 38,025 270 432 -64
2020-04-08 11:14:39 GMT 56.094452 42.245426 38,025 270 431 0
2020-04-08 11:14:36 GMT 56.094467 42.256081 38,025 271 431 0
2020-04-08 11:14:29 GMT 56.094467 42.280624 38,025 270 431 0
2020-04-08 11:14:25 GMT 56.094421 42.306545 38,025 271 431 0
2020-04-08 11:14:18 GMT 56.094421 42.317276 38,025 271 431 64
2020-04-08 11:14:14 GMT 56.094421 42.332211 38,025 271 431 0
2020-04-08 11:14:09 GMT 56.094376 42.354610 38,025 271 431 0
2020-04-08 11:14:05 GMT 56.094330 42.367058 38,025 271 431 0
2020-04-08 11:13:58 GMT 56.094269 42.390163 38,025 271 431 64
2020-04-08 11:13:55 GMT 56.094234 42.402935 38,025 271 431 64
2020-04-08 11:13:48 GMT 56.094143 42.427738 38,025 271 431 64
2020-04-08 11:13:43 GMT 56.094131 42.442017 38,000 271 431 64
2020-04-08 11:13:37 GMT 56.094097 42.463703 38,000 271 431 0
2020-04-08 11:13:33 GMT 56.094051 42.478294 38,025 271 431 64
2020-04-08 11:13:28 GMT 56.093956 42.499924 38,000 271 431 64
2020-04-08 11:13:22 GMT 56.093910 42.516663 38,000 271 431 64
2020-04-08 11:13:17 GMT 56.093864 42.537949 38,000 271 430 64
2020-04-08 11:13:13 GMT 56.093811 42.554958 37,975 271 430 64
2020-04-08 11:13:07 GMT 56.093719 42.571690 37,975 271 430 0
2020-04-08 11:13:03 GMT 56.093632 42.593994 37,975 271 430 64
2020-04-08 11:12:57 GMT 56.093582 42.608227 37,975 271 430 64
2020-04-08 11:12:52 GMT 56.093491 42.623093 37,975 271 429 64
2020-04-08 11:12:47 GMT 56.093399 42.645061 37,975 271 429 0
2020-04-08 11:12:41 GMT 56.093353 42.663090 37,975 271 429 0
2020-04-08 11:12:37 GMT 56.093262 42.678638 37,975 271 429 0
2020-04-08 11:12:33 GMT 56.093170 42.694534 37,975 271 428 0
2020-04-08 11:12:27 GMT 56.093079 42.716507 37,975 271 428 0
2020-04-08 11:12:22 GMT 56.092979 42.740849 37,975 271 428 0
2020-04-08 11:12:19 GMT 56.092979 42.740849 37,975 271 428 0
2020-04-08 11:12:16 GMT 56.092941 42.752880 37,975 271 428 0
2020-04-08 11:12:12 GMT 56.092838 42.766945 37,975 271 427 0
2020-04-08 11:12:06 GMT 56.092606 42.804024 37,975 272 427 0
2020-04-08 11:12:01 GMT 56.092606 42.804024 37,975 271 427 0
2020-04-08 11:11:55 GMT 56.092438 42.825871 37,975 271 427 0
2020-04-08 11:11:52 GMT 56.092255 42.841686 37,975 272 427 0
2020-04-08 11:11:44 GMT 56.092049 42.864532 37,975 272 427 0
2020-04-08 11:11:40 GMT 56.091908 42.878265 37,975 271 427 0
2020-04-08 11:11:34 GMT 56.091705 42.899780 37,975 271 427 0
2020-04-08 11:11:29 GMT 56.091568 42.920921 37,975 271 427 0
2020-04-08 11:11:25 GMT 56.091522 42.931408 37,975 271 427 0
2020-04-08 11:11:20 GMT 56.091476 42.949051 37,975 270 427 0
2020-04-08 11:11:15 GMT 56.091537 42.967358 37,975 270 427 0
2020-04-08 11:11:11 GMT 56.091583 42.984612 37,975 270 427 0
2020-04-08 11:11:05 GMT 56.091705 43.003319 37,975 270 427 0
2020-04-08 11:10:59 GMT 56.091816 43.022289 37,975 270 427 0
2020-04-08 11:10:53 GMT 56.091888 43.043102 37,975 270 427 -64
2020-04-08 11:10:49 GMT 56.092003 43.057907 38,000 270 427 -64
2020-04-08 11:10:43 GMT 56.092117 43.082886 38,000 270 427 -64
2020-04-08 11:10:39 GMT 56.092190 43.094902 38,000 270 427 0
2020-04-08 11:10:34 GMT 56.092255 43.110352 38,000 270 427 0
2020-04-08 11:10:29 GMT 56.092346 43.131161 38,000 270 427 0
2020-04-08 11:10:24 GMT 56.092392 43.146641 38,000 270 428 0
2020-04-08 11:10:14 GMT 56.092529 43.181931 38,000 270 428 0
2020-04-08 11:10:10 GMT 56.092606 43.194637 38,000 270 428 0
2020-04-08 11:10:07 GMT 56.092621 43.208397 38,000 270 428 0
2020-04-08 11:10:04 GMT 56.092701 43.217896 38,000 270 428 0
2020-04-08 11:09:58 GMT 56.092758 43.240189 38,000 270 428 0
2020-04-08 11:09:53 GMT 56.092838 43.254974 38,000 270 429 0
2020-04-08 11:09:48 GMT 56.092896 43.276562 38,000 270 429 -64
2020-04-08 11:09:44 GMT 56.092987 43.291126 38,000 270 429 0
2020-04-08 11:09:35 GMT 56.093079 43.323254 38,000 270 429 -64
2020-04-08 11:09:31 GMT 56.093121 43.334625 38,000 270 429 -64
2020-04-08 11:09:28 GMT 56.093170 43.345894 38,025 270 429 -64
2020-04-08 11:09:23 GMT 56.093212 43.362267 38,025 270 429 -64
2020-04-08 11:09:18 GMT 56.093304 43.382778 38,025 270 430 0
2020-04-08 11:09:13 GMT 56.093307 43.398327 38,025 270 430 0
2020-04-08 11:09:10 GMT 56.093353 43.406898 38,025 270 430 0
2020-04-08 11:09:07 GMT 56.093399 43.421047 38,025 270 430 0
2020-04-08 11:09:03 GMT 56.093399 43.434200 38,025 270 431 0
2020-04-08 11:08:54 GMT 56.093491 43.470070 38,025 270 431 0
2020-04-08 11:08:51 GMT 56.093491 43.481140 38,025 270 431 0
2020-04-08 11:08:43 GMT 56.093536 43.505260 38,025 270 431 0
2020-04-08 11:08:40 GMT 56.093582 43.515598 38,025 270 432 0
2020-04-08 11:08:37 GMT 56.093582 43.529495 38,025 270 432 0
2020-04-08 11:08:33 GMT 56.093628 43.537655 38,025 270 432 0
2020-04-08 11:08:29 GMT 56.093632 43.555470 38,025 270 432 0
2020-04-08 11:08:25 GMT 56.093674 43.566952 38,025 270 432 0
2020-04-08 11:08:22 GMT 56.093678 43.579762 38,025 270 432 0
2020-04-08 11:08:18 GMT 56.093678 43.592293 38,025 270 433 0
2020-04-08 11:08:13 GMT 56.093678 43.610489 38,025 270 433 0
2020-04-08 11:08:10 GMT 56.093678 43.624393 38,025 270 433 0
2020-04-08 11:08:06 GMT 56.093678 43.638985 38,025 271 433 0
2020-04-08 11:08:02 GMT 56.093674 43.652592 38,025 271 433 0
2020-04-08 11:07:55 GMT 56.093632 43.679752 38,025 271 434 0
2020-04-08 11:07:51 GMT 56.093632 43.688335 38,025 270 434 0
2020-04-08 11:07:48 GMT 56.093628 43.699783 38,025 270 434 0
2020-04-08 11:07:45 GMT 56.093632 43.711941 38,025 270 434 0
2020-04-08 11:07:41 GMT 56.093674 43.736656 38,025 270 434 0
2020-04-08 11:07:32 GMT 56.093678 43.756657 38,025 270 434 0
2020-04-08 11:07:29 GMT 56.093674 43.773525 38,025 270 434 0
2020-04-08 11:07:24 GMT 56.093674 43.787510 38,025 270 434 0
2020-04-08 11:07:20 GMT 56.093678 43.799313 38,000 270 434 0
2020-04-08 11:07:17 GMT 56.093674 43.812561 38,025 271 434 0
2020-04-08 11:07:14 GMT 56.093674 43.825462 38,025 271 434 0
2020-04-08 11:07:11 GMT 56.093628 43.835117 38,025 271 434 0
2020-04-08 11:07:07 GMT 56.093632 43.845837 38,000 271 434 0
2020-04-08 11:07:02 GMT 56.093582 43.867290 38,000 271 434 0
2020-04-08 11:06:58 GMT 56.093582 43.880978 38,000 270 434 0
2020-04-08 11:06:54 GMT 56.093582 43.894501 38,000 270 434 0
2020-04-08 11:06:51 GMT 56.093582 43.904198 38,000 271 434 0
2020-04-08 11:06:48 GMT 56.093536 43.918533 38,000 271 434 64
2020-04-08 11:06:40 GMT 56.093536 43.944626 38,000 271 434 64
2020-04-08 11:06:36 GMT 56.093491 43.958961 38,000 271 434 64
2020-04-08 11:06:30 GMT 56.093445 43.980766 38,000 271 434 0
2020-04-08 11:06:23 GMT 56.093353 44.010460 38,000 271 433 0
2020-04-08 11:06:20 GMT 56.093353 44.018387 38,000 271 433 -64
2020-04-08 11:06:16 GMT 56.093304 44.028397 38,000 271 433 0
2020-04-08 11:06:13 GMT 56.093258 44.042988 38,000 271 433 0
2020-04-08 11:06:09 GMT 56.093262 44.055176 38,000 271 433 0
2020-04-08 11:06:02 GMT 56.093166 44.081955 38,000 271 433 0
2020-04-08 11:05:59 GMT 56.093121 44.090538 38,000 271 433 0
2020-04-08 11:05:49 GMT 56.092979 44.127274 38,000 271 432 0
2020-04-08 11:05:41 GMT 56.092838 44.155426 38,000 271 432 0
2020-04-08 11:05:38 GMT 56.092850 44.163624 38,000 271 432 64
2020-04-08 11:05:28 GMT 56.092701 44.199970 38,000 271 432 0
2020-04-08 11:05:18 GMT 56.092529 44.235619 37,975 271 432 0
2020-04-08 11:05:11 GMT 56.092373 44.262974 37,975 271 431 64
2020-04-08 11:05:08 GMT 56.092327 44.272587 37,975 271 431 64
2020-04-08 11:05:01 GMT 56.092190 44.303226 37,975 271 431 0
2020-04-08 11:04:57 GMT 56.092163 44.311691 37,975 271 431 0
2020-04-08 11:04:48 GMT 56.091816 44.379959 37,975 271 430 0
2020-04-08 11:04:38 GMT 56.091816 44.379959 38,000 271 430 0
2020-04-08 11:04:28 GMT 56.091660 44.417557 38,000 271 430 -64
2020-04-08 11:04:21 GMT 56.091522 44.444443 38,000 271 429 -64
2020-04-08 11:04:18 GMT 56.091476 44.451851 38,000 271 429 0
2020-04-08 11:04:07 GMT 56.091209 44.488361 38,000 271 429 0
2020-04-08 11:03:57 GMT 56.090927 44.525089 38,000 271 429 0
2020-04-08 11:03:49 GMT 56.090698 44.555912 38,000 271 429 0
2020-04-08 11:03:46 GMT 56.090652 44.561546 38,000 271 429 0
2020-04-08 11:03:37 GMT 56.090332 44.598747 38,000 271 429 0
2020-04-08 11:03:26 GMT 56.090057 44.634872 38,000 271 429 -64
2020-04-08 11:03:16 GMT 56.089783 44.669163 38,000 271 429 0
2020-04-08 11:03:05 GMT 56.089508 44.707031 38,000 271 429 0
2020-04-08 11:02:56 GMT 56.089302 44.743111 38,025 271 429 0
2020-04-08 11:02:45 GMT 56.089096 44.778194 38,025 271 429 -64
2020-04-08 11:02:34 GMT 56.088837 44.815636 38,025 271 429 0
2020-04-08 11:02:24 GMT 56.088558 44.851425 38,025 271 429 0
2020-04-08 11:02:15 GMT 56.088272 44.887474 38,025 271 429 0
2020-04-08 11:02:03 GMT 56.087906 44.926785 38,025 271 429 64
2020-04-08 11:01:54 GMT 56.087627 44.960003 38,025 271 429 0
2020-04-08 11:01:43 GMT 56.087265 44.996086 38,000 272 429 64
2020-04-08 11:01:32 GMT 56.086761 45.040367 38,000 272 429 0
2020-04-08 11:01:23 GMT 56.086395 45.069748 38,000 272 429 0
2020-04-08 11:01:12 GMT 56.085949 45.105400 38,000 272 428 64
2020-04-08 11:01:00 GMT 56.085388 45.148899 38,000 272 428 0
2020-04-08 11:00:53 GMT 56.085022 45.177780 38,000 272 428 0
2020-04-08 11:00:31 GMT 56.084015 45.253601 38,000 272 427 0
2020-04-08 11:00:19 GMT 56.083466 45.293385 37,975 272 426 0
2020-04-08 11:00:11 GMT 56.083054 45.322182 37,975 272 426 0
2020-04-08 10:59:56 GMT 56.082363 45.374477 37,975 272 425 0
2020-04-08 10:59:51 GMT 56.082092 45.394424 37,975 272 425 0
2020-04-08 10:59:34 GMT 56.081360 45.454685 73,000 272 424 -64
2020-04-08 10:59:31 GMT 56.081249 45.461681 73,000 272 424 -64
2020-04-08 10:59:04 GMT 56.079803 45.556953 37,975 272 423 64
2020-04-08 10:58:59 GMT 56.079529 45.574699 37,975 272 423 64
2020-04-08 10:58:45 GMT 56.078705 45.623558 37,975 272 423 0
2020-04-08 10:58:37 GMT 56.078293 45.649693 37,975 272 423 0
2020-04-08 10:58:28 GMT 56.077744 45.681400 37,975 272 422 0
2020-04-08 10:58:19 GMT 56.077106 45.718315 37,975 272 422 0
2020-04-08 10:58:07 GMT 56.076508 45.755978 38,000 272 422 -64
2020-04-08 10:57:59 GMT 56.076080 45.782001 38,000 272 422 0
2020-04-08 10:57:45 GMT 56.075317 45.831383 38,000 272 421 0
2020-04-08 10:57:38 GMT 56.074871 45.858822 38,000 272 421 0
2020-04-08 10:57:27 GMT 56.074219 45.895988 38,000 272 421 0
2020-04-08 10:57:19 GMT 56.073715 45.922020 38,000 272 421 64
2020-04-08 10:57:14 GMT 56.073425 45.939419 38,000 272 422 0
2020-04-08 10:57:06 GMT 56.072914 45.966537 38,000 272 422 -64
2020-04-08 10:56:57 GMT 56.072266 46.002419 38,000 272 422 -64
2020-04-08 10:56:46 GMT 56.071659 46.038208 38,000 272 422 -64
2020-04-08 10:56:36 GMT 56.071053 46.072285 38,025 273 422 0
2020-04-08 10:56:26 GMT 56.070309 46.108074 38,025 273 422 -64
2020-04-08 10:56:16 GMT 56.069515 46.145241 38,025 273 422 -64
2020-04-08 10:56:08 GMT 56.069004 46.170647 38,025 273 422 0
2020-04-08 10:56:05 GMT 56.068817 46.180031 38,050 272 422 0
2020-04-08 10:55:57 GMT 56.068352 46.205833 38,025 272 422 0
2020-04-08 10:55:54 GMT 56.068130 46.216988 38,025 272 423 0
2020-04-08 10:55:47 GMT 56.067673 46.242786 38,025 273 423 0
2020-04-08 10:55:44 GMT 56.067516 46.252525 38,025 273 423 0
2020-04-08 10:55:35 GMT 56.066803 46.286732 38,025 273 424 0
2020-04-08 10:55:24 GMT 56.066025 46.324100 38,025 273 424 0
2020-04-08 10:55:13 GMT 56.065189 46.359730 38,025 273 424 0
2020-04-08 10:55:03 GMT 56.064331 46.394348 38,025 273 424 0
2020-04-08 10:54:54 GMT 56.063328 46.431396 38,025 273 424 64
2020-04-08 10:54:43 GMT 56.062454 46.467758 38,000 270 426 0
2020-04-08 10:54:33 GMT 56.062958 46.502132 38,000 267 425 64
2020-04-08 10:54:22 GMT 56.064240 46.538254 38,000 267 425 0
2020-04-08 10:54:13 GMT 56.065475 46.574291 38,000 267 424 0
2020-04-08 10:54:05 GMT 56.066399 46.600571 37,975 267 424 0
2020-04-08 10:54:02 GMT 56.066723 46.609325 37,975 267 424 0
2020-04-08 10:53:55 GMT 56.067719 46.637630 38,000 267 423 -64
2020-04-08 10:53:52 GMT 56.068039 46.645950 38,000 267 423 -64
2020-04-08 10:53:44 GMT 56.069092 46.676994 38,000 267 423 0
2020-04-08 10:53:41 GMT 56.069275 46.682571 38,000 267 423 0
2020-04-08 10:53:31 GMT 56.070450 46.716702 38,000 267 422 0
2020-04-08 10:53:21 GMT 56.071609 46.752983 38,000 267 422 -64
2020-04-08 10:53:10 GMT 56.072823 46.789143 38,000 267 421 64
2020-04-08 10:53:00 GMT 56.073944 46.824562 37,975 267 421 0
2020-04-08 10:52:50 GMT 56.075104 46.860722 38,000 267 421 0
2020-04-08 10:52:40 GMT 56.076324 46.896805 38,000 267 421 -64
2020-04-08 10:52:29 GMT 56.077469 46.931515 38,000 267 420 0
2020-04-08 10:52:20 GMT 56.078640 46.967583 38,000 267 420 0
2020-04-08 10:52:09 GMT 56.079758 47.002842 38,000 267 420 0
2020-04-08 10:51:59 GMT 56.080811 47.037464 38,000 267 420 0
2020-04-08 10:51:48 GMT 56.081909 47.073170 38,000 267 420 0
2020-04-08 10:51:39 GMT 56.083008 47.109459 38,000 267 419 64
2020-04-08 10:51:28 GMT 56.084042 47.144394 38,000 267 419 0
2020-04-08 10:51:18 GMT 56.085064 47.179325 38,000 267 419 64
2020-04-08 10:51:08 GMT 56.086121 47.214909 38,000 267 419 0
2020-04-08 10:50:58 GMT 56.087219 47.251114 38,000 267 418 0
2020-04-08 10:50:47 GMT 56.088272 47.286655 38,000 267 418 0
2020-04-08 10:50:37 GMT 56.089371 47.321529 38,000 267 418 -64
2020-04-08 10:50:27 GMT 56.090469 47.355984 38,000 267 418 0
2020-04-08 10:50:17 GMT 56.091583 47.391846 38,000 267 417 0
2020-04-08 10:50:06 GMT 56.092621 47.426979 38,000 267 418 -64
2020-04-08 10:49:55 GMT 56.093723 47.463428 38,000 267 417 -64
2020-04-08 10:49:45 GMT 56.095215 47.515099 38,025 268 417 0
2020-04-08 10:49:31 GMT 56.096191 47.551231 38,025 268 417 0
2020-04-08 10:49:20 GMT 56.097168 47.585995 38,025 268 417 0
2020-04-08 10:49:10 GMT 56.098148 47.621441 38,025 268 418 0
2020-04-08 10:48:57 GMT 56.099358 47.664528 38,025 268 417 0
2020-04-08 10:48:48 GMT 56.100288 47.697227 38,025 268 418 0
2020-04-08 10:48:38 GMT 56.101273 47.733433 38,025 268 418 0
2020-04-08 10:48:27 GMT 56.102280 47.769222 38,025 268 417 64
2020-04-08 10:48:16 GMT 56.103195 47.804344 38,000 268 417 64
2020-04-08 10:48:09 GMT 56.103973 47.834305 38,000 268 418 0
2020-04-08 10:47:57 GMT 56.104988 47.873611 38,000 268 417 0
2020-04-08 10:47:46 GMT 56.105873 47.910519 38,000 268 417 0
2020-04-08 10:47:37 GMT 56.106571 47.938671 38,000 268 417 0
2020-04-08 10:47:34 GMT 56.106857 47.950413 38,000 268 417 0
2020-04-08 10:47:28 GMT 56.107506 47.974808 38,000 268 417 0
2020-04-08 10:47:15 GMT 56.108528 48.016434 38,000 268 416 0
2020-04-08 10:47:05 GMT 56.109329 48.050789 38,000 268 416 0
2020-04-08 10:46:54 GMT 56.110203 48.086472 38,000 268 416 0
2020-04-08 10:46:47 GMT 56.110931 48.114956 38,000 268 416 0
2020-04-08 10:46:44 GMT 56.111088 48.122177 38,000 268 416 0
2020-04-08 10:46:36 GMT 56.111801 48.151329 38,000 268 416 0
2020-04-08 10:46:33 GMT 56.111973 48.160286 38,000 268 416 0
2020-04-08 10:46:25 GMT 56.112625 48.186295 38,000 268 415 0
2020-04-08 10:46:22 GMT 56.112854 48.197269 38,000 268 415 0
2020-04-08 10:46:14 GMT 56.113678 48.229813 38,000 268 415 0
2020-04-08 10:46:03 GMT 56.114441 48.263371 38,000 268 415 0
2020-04-08 10:45:55 GMT 56.115051 48.290405 38,000 268 415 0
2020-04-08 10:45:52 GMT 56.115280 48.301060 38,000 268 415 0
2020-04-08 10:45:43 GMT 56.116024 48.334267 38,000 268 415 0
2020-04-08 10:45:32 GMT 56.116814 48.370144 38,000 268 414 0
2020-04-08 10:45:22 GMT 56.117558 48.404045 37,975 268 414 64
2020-04-08 10:45:11 GMT 56.118301 48.439552 37,975 268 414 0
2020-04-08 10:45:02 GMT 56.119003 48.474770 37,975 268 414 64
2020-04-08 10:44:51 GMT 56.119701 48.509274 37,975 269 413 0
2020-04-08 10:44:41 GMT 56.120399 48.544376 37,975 269 413 0
2020-04-08 10:44:33 GMT 56.120956 48.573730 37,975 269 413 0
2020-04-08 10:44:30 GMT 56.121094 48.580544 37,975 269 413 0
2020-04-08 10:44:21 GMT 56.121750 48.614674 37,975 269 413 -64
2020-04-08 10:44:12 GMT 56.122284 48.643967 37,975 269 412 -64
2020-04-08 10:44:09 GMT 56.122448 48.651752 38,000 269 412 -64
2020-04-08 10:44:02 GMT 56.122913 48.677330 38,000 269 412 -64
2020-04-08 10:43:50 GMT 56.123749 48.719540 38,000 268 412 0
2020-04-08 10:43:39 GMT 56.124435 48.754578 38,000 269 413 -64
2020-04-08 10:43:29 GMT 56.125122 48.790367 38,025 269 413 -64
2020-04-08 10:43:19 GMT 56.125751 48.826160 38,025 269 413 0
2020-04-08 10:43:11 GMT 56.126263 48.853798 38,025 269 413 0
2020-04-08 10:43:08 GMT 56.126358 48.860279 38,025 269 414 -64
2020-04-08 10:43:00 GMT 56.126862 48.887997 38,025 269 414 0
2020-04-08 10:42:57 GMT 56.127010 48.896458 38,025 269 414 0
2020-04-08 10:42:48 GMT 56.127640 48.930691 38,025 269 414 0
2020-04-08 10:42:39 GMT 56.128052 48.958073 38,025 269 415 0
2020-04-08 10:42:36 GMT 56.128281 48.970058 38,025 269 415 0
2020-04-08 10:42:30 GMT 56.128647 48.993362 38,025 269 415 -64
2020-04-08 10:42:27 GMT 56.128784 49.000854 38,025 269 415 0
2020-04-08 10:42:19 GMT 56.129242 49.029320 38,025 269 415 0
2020-04-08 10:42:16 GMT 56.129379 49.037560 38,025 269 416 0
2020-04-08 10:42:09 GMT 56.129791 49.063278 38,025 269 416 0
2020-04-08 10:42:06 GMT 56.129990 49.074299 38,025 269 416 0
2020-04-08 10:41:56 GMT 56.130501 49.107258 38,025 269 416 64
2020-04-08 10:41:49 GMT 56.130920 49.133434 38,025 269 417 0
2020-04-08 10:41:46 GMT 56.131058 49.142704 38,000 269 417 0
2020-04-08 10:41:36 GMT 56.131622 49.178135 38,000 269 417 64
2020-04-08 10:41:28 GMT 56.132034 49.204601 38,000 269 417 0
2020-04-08 10:41:25 GMT 56.132172 49.212841 38,000 269 417 0
2020-04-08 10:41:17 GMT 56.132584 49.239723 38,000 269 417 64
2020-04-08 10:41:14 GMT 56.132721 49.249710 38,000 269 417 0
2020-04-08 10:41:08 GMT 56.133087 49.274429 38,000 269 417 0
2020-04-08 10:41:04 GMT 56.133270 49.285084 38,000 269 417 0
2020-04-08 10:40:55 GMT 56.133728 49.319126 38,000 269 416 0
2020-04-08 10:40:47 GMT 56.134048 49.344593 38,000 269 416 0
2020-04-08 10:40:44 GMT 56.134224 49.354961 38,000 269 416 0
2020-04-08 10:40:34 GMT 56.134689 49.389622 38,000 269 416 0
2020-04-08 10:40:27 GMT 56.135017 49.415386 38,000 269 416 0
2020-04-08 10:40:23 GMT 56.135147 49.425743 38,000 269 416 0
2020-04-08 10:40:16 GMT 56.135483 49.450836 38,000 269 416 0
2020-04-08 10:40:13 GMT 56.135605 49.461117 38,000 269 416 0
2020-04-08 10:40:06 GMT 56.135925 49.486500 38,000 269 415 0
2020-04-08 10:40:03 GMT 56.136040 49.497101 38,000 269 415 0
2020-04-08 10:39:56 GMT 56.136318 49.520447 38,000 269 415 -64
2020-04-08 10:39:52 GMT 56.136459 49.533150 38,025 269 415 -64
2020-04-08 10:39:46 GMT 56.136703 49.556747 38,025 269 415 0
2020-04-08 10:39:41 GMT 56.136841 49.568729 38,000 269 415 0
2020-04-08 10:39:35 GMT 56.137070 49.592033 38,000 269 415 0
2020-04-08 10:39:32 GMT 56.137207 49.604771 38,025 269 415 0
2020-04-08 10:39:25 GMT 56.137436 49.626961 38,025 269 415 -64
2020-04-08 10:39:21 GMT 56.137577 49.639664 38,025 269 415 0
2020-04-08 10:39:14 GMT 56.137848 49.661617 38,025 269 415 0
2020-04-08 10:39:10 GMT 56.138042 49.675968 38,025 269 415 0
2020-04-08 10:39:05 GMT 56.138260 49.696903 38,025 269 415 0
2020-04-08 10:39:01 GMT 56.138412 49.709873 38,025 269 415 0
2020-04-08 10:38:54 GMT 56.138695 49.732189 38,025 269 415 0
2020-04-08 10:38:50 GMT 56.138882 49.745579 38,025 269 415 0
2020-04-08 10:38:44 GMT 56.139130 49.767151 38,025 269 415 0
2020-04-08 10:38:39 GMT 56.139297 49.781544 38,025 269 415 0
2020-04-08 10:38:33 GMT 56.139580 49.802742 38,025 269 415 0
2020-04-08 10:38:30 GMT 56.139725 49.817173 38,025 269 415 0
2020-04-08 10:38:24 GMT 56.139954 49.838478 38,025 270 415 0
2020-04-08 10:38:19 GMT 56.140045 49.852867 38,025 270 415 0
2020-04-08 10:38:13 GMT 56.140228 49.872437 38,025 270 415 0
2020-04-08 10:38:08 GMT 56.140369 49.888145 38,025 270 415 0
2020-04-08 10:38:02 GMT 56.140549 49.908394 38,025 270 415 0
2020-04-08 10:37:59 GMT 56.140694 49.922817 38,025 270 415 0
2020-04-08 10:37:52 GMT 56.140881 49.944103 38,025 270 415 0
2020-04-08 10:37:48 GMT 56.141022 49.958179 38,025 270 415 0
2020-04-08 10:37:43 GMT 56.141190 49.978806 38,025 270 415 64
2020-04-08 10:37:37 GMT 56.141373 49.994534 38,025 270 415 64
2020-04-08 10:37:32 GMT 56.141556 50.013428 38,000 270 415 64
2020-04-08 10:37:28 GMT 56.141647 50.028824 38,000 270 416 64
2020-04-08 10:37:22 GMT 56.141811 50.049076 38,000 270 416 0
2020-04-08 10:37:17 GMT 56.141922 50.064198 38,000 270 415 0
2020-04-08 10:37:11 GMT 56.142059 50.083755 38,000 270 415 64
2020-04-08 10:37:06 GMT 56.142197 50.101566 38,000 270 415 64
2020-04-08 10:37:02 GMT 56.142288 50.118382 37,975 270 415 64
2020-04-08 10:36:57 GMT 56.142418 50.137222 37,975 270 415 64
2020-04-08 10:36:51 GMT 56.142563 50.154671 37,975 270 415 0
2020-04-08 10:36:46 GMT 56.142651 50.171814 37,975 270 415 0
2020-04-08 10:36:41 GMT 56.142742 50.189667 37,975 270 414 -64
2020-04-08 10:36:36 GMT 56.142883 50.206772 38,000 270 414 -64
2020-04-08 10:36:31 GMT 56.142975 50.226231 38,000 270 414 -64
2020-04-08 10:36:25 GMT 56.143070 50.243652 38,000 270 414 -64
2020-04-08 10:36:20 GMT 56.143158 50.260036 38,000 270 413 -64
2020-04-08 10:36:14 GMT 56.143250 50.278515 38,000 270 413 0
2020-04-08 10:36:10 GMT 56.143349 50.294209 38,000 270 413 0
2020-04-08 10:36:05 GMT 56.143433 50.313305 38,000 270 413 0
2020-04-08 10:35:59 GMT 56.143478 50.329700 38,000 270 413 0
2020-04-08 10:35:54 GMT 56.143616 50.349842 38,000 270 413 0
2020-04-08 10:35:50 GMT 56.143661 50.364491 38,000 270 413 0
2020-04-08 10:35:43 GMT 56.143768 50.384674 38,000 270 413 0
2020-04-08 10:35:39 GMT 56.143860 50.400040 38,000 270 414 0
2020-04-08 10:35:34 GMT 56.143936 50.419174 38,000 270 415 0
2020-04-08 10:35:29 GMT 56.144047 50.434284 38,000 270 415 0
2020-04-08 10:35:23 GMT 56.144138 50.454884 38,000 270 416 0
2020-04-08 10:35:18 GMT 56.144234 50.471363 38,000 270 417 0
2020-04-08 10:35:13 GMT 56.144302 50.490002 38,000 270 418 0
2020-04-08 10:35:09 GMT 56.144375 50.504494 38,000 270 418 0
2020-04-08 10:35:02 GMT 56.144485 50.526207 38,000 270 419 0
2020-04-08 10:34:58 GMT 56.144558 50.540028 38,000 270 419 0
2020-04-08 10:34:52 GMT 56.144653 50.560455 38,000 270 418 0
2020-04-08 10:34:48 GMT 56.144699 50.575645 38,000 270 418 0
2020-04-08 10:34:42 GMT 56.144791 50.597794 38,000 270 418 0
2020-04-08 10:34:37 GMT 56.144886 50.611954 38,000 270 418 0
2020-04-08 10:34:31 GMT 56.144978 50.632980 38,000 270 418 0
2020-04-08 10:34:28 GMT 56.145023 50.647144 38,000 270 418 0
2020-04-08 10:34:22 GMT 56.145069 50.667831 38,000 270 416 64
2020-04-08 10:34:17 GMT 56.145126 50.681595 38,000 270 416 64
2020-04-08 10:34:11 GMT 56.145218 50.703903 37,975 270 414 0
2020-04-08 10:34:07 GMT 56.145309 50.717884 38,000 270 413 0
2020-04-08 10:34:01 GMT 56.145355 50.738358 38,000 270 411 0
2020-04-08 10:33:57 GMT 56.145397 50.751945 38,000 270 410 -64
2020-04-08 10:33:51 GMT 56.145493 50.773647 38,025 270 408 -128
2020-04-08 10:33:47 GMT 56.145538 50.786449 38,050 270 407 -128
2020-04-08 10:33:40 GMT 56.145630 50.808937 38,025 270 405 128
2020-04-08 10:33:36 GMT 56.145630 50.820950 38,000 270 406 128
2020-04-08 10:33:29 GMT 56.145721 50.843182 37,975 270 411 0
2020-04-08 10:33:25 GMT 56.145771 50.859489 37,975 270 413 -64
2020-04-08 10:33:20 GMT 56.145771 50.877602 38,000 270 414 0
2020-04-08 10:33:15 GMT 56.145813 50.891251 38,000 270 413 0
2020-04-08 10:33:09 GMT 56.145813 50.913059 38,000 270 413 0
2020-04-08 10:33:06 GMT 56.145813 50.926376 38,000 270 413 0
2020-04-08 10:32:58 GMT 56.145859 50.948929 38,000 270 413 0
2020-04-08 10:32:55 GMT 56.145863 50.961201 38,000 270 413 0
2020-04-08 10:32:48 GMT 56.145863 50.983772 38,000 270 413 0
2020-04-08 10:32:45 GMT 56.145905 50.996037 38,000 270 413 0
2020-04-08 10:32:38 GMT 56.145908 51.017845 38,000 270 412 64
2020-04-08 10:32:34 GMT 56.145950 51.031410 38,000 270 412 0
2020-04-08 10:32:28 GMT 56.145950 51.053219 38,000 270 412 0
2020-04-08 10:32:25 GMT 56.145954 51.064796 38,000 270 412 0
2020-04-08 10:32:17 GMT 56.145950 51.089672 38,000 270 412 0
2020-04-08 10:32:14 GMT 56.145950 51.100243 38,000 270 412 0
2020-04-08 10:32:08 GMT 56.145950 51.124046 38,000 270 411 0
2020-04-08 10:32:03 GMT 56.145954 51.136978 38,000 270 411 64
2020-04-08 10:31:57 GMT 56.145950 51.158669 38,000 271 411 0
2020-04-08 10:31:54 GMT 56.145954 51.169853 38,000 271 411 64
2020-04-08 10:31:47 GMT 56.145908 51.193287 38,000 271 411 64
2020-04-08 10:31:44 GMT 56.145908 51.205215 38,000 271 411 0
2020-04-08 10:31:37 GMT 56.145813 51.229996 38,000 271 411 0
2020-04-08 10:31:32 GMT 56.145813 51.242565 38,000 271 411 0
2020-04-08 10:31:26 GMT 56.145721 51.264610 37,975 271 411 64
2020-04-08 10:31:22 GMT 56.145676 51.275440 38,000 271 410 0
2020-04-08 10:31:16 GMT 56.145584 51.298496 37,975 271 410 0
2020-04-08 10:31:12 GMT 56.145538 51.310017 37,975 271 410 0
2020-04-08 10:31:03 GMT 56.145397 51.344604 37,975 271 410 0
2020-04-08 10:30:55 GMT 56.145256 51.368382 37,975 271 410 0
2020-04-08 10:30:52 GMT 56.145218 51.378479 37,975 271 410 0
2020-04-08 10:30:42 GMT 56.145081 51.414017 37,975 271 410 0
2020-04-08 10:30:34 GMT 56.144978 51.438763 37,975 271 410 0
2020-04-08 10:30:31 GMT 56.144943 51.448559 37,975 271 410 0
2020-04-08 10:30:22 GMT 56.144836 51.482449 37,975 271 410 -64
2020-04-08 10:30:14 GMT 56.144760 51.507816 38,000 271 410 0
2020-04-08 10:30:11 GMT 56.144745 51.517639 38,000 271 409 0
2020-04-08 10:30:01 GMT 56.144608 51.552830 37,975 271 409 0
2020-04-08 10:29:54 GMT 56.144531 51.578148 38,000 271 410 -64
2020-04-08 10:29:51 GMT 56.144531 51.586304 38,000 271 410 -64
2020-04-08 10:29:41 GMT 56.144348 51.621841 38,000 271 410 -64
2020-04-08 10:29:30 GMT 56.144211 51.655968 38,000 271 410 -64
2020-04-08 10:29:20 GMT 56.144028 51.690506 38,025 271 410 0
2020-04-08 10:29:13 GMT 56.143860 51.717625 38,025 271 410 -64
2020-04-08 10:29:09 GMT 56.143814 51.726463 38,025 271 410 -64
2020-04-08 10:29:00 GMT 56.143581 51.760628 38,025 271 410 0
2020-04-08 10:28:52 GMT 56.143387 51.787720 38,025 271 410 0
2020-04-08 10:28:49 GMT 56.143341 51.796543 38,025 271 411 64
2020-04-08 10:28:39 GMT 56.143112 51.830166 38,025 271 411 0
2020-04-08 10:28:31 GMT 56.142929 51.857014 38,025 271 412 64
2020-04-08 10:28:28 GMT 56.142883 51.865513 38,025 271 412 64
2020-04-08 10:28:19 GMT 56.142654 51.900913 38,000 271 413 0
2020-04-08 10:28:11 GMT 56.142464 51.926453 38,000 271 413 0
2020-04-08 10:28:08 GMT 56.142418 51.934605 38,000 271 413 0
2020-04-08 10:27:58 GMT 56.142151 51.969410 38,025 271 413 64
2020-04-08 10:27:50 GMT 56.141922 51.997375 38,000 271 412 64
2020-04-08 10:27:47 GMT 56.141857 52.005157 38,000 271 412 64
2020-04-08 10:27:38 GMT 56.141556 52.039242 37,975 271 413 0
2020-04-08 10:27:27 GMT 56.141235 52.074364 38,000 271 412 0
2020-04-08 10:27:17 GMT 56.140732 52.126717 37,975 271 412 64
2020-04-08 10:27:08 GMT 56.140648 52.138969 38,000 271 412 0
2020-04-08 10:26:59 GMT 56.140324 52.172611 38,000 271 411 64
2020-04-08 10:26:52 GMT 56.140091 52.195377 37,975 271 411 0
2020-04-08 10:26:48 GMT 56.139954 52.207947 38,000 272 411 0
2020-04-08 10:26:41 GMT 56.139725 52.231750 37,975 271 412 0
2020-04-08 10:26:37 GMT 56.139626 52.243340 38,000 271 412 0
2020-04-08 10:26:28 GMT 56.139267 52.277279 37,975 271 412 -64
2020-04-08 10:26:20 GMT 56.139065 52.300758 38,000 271 411 0
2020-04-08 10:26:17 GMT 56.138947 52.312317 38,000 271 411 0
2020-04-08 10:26:10 GMT 56.138741 52.335091 38,000 272 411 -64
2020-04-08 10:26:07 GMT 56.138580 52.347275 38,000 272 411 0
2020-04-08 10:26:00 GMT 56.138321 52.371395 38,000 272 411 0
2020-04-08 10:25:57 GMT 56.138229 52.381611 38,000 272 411 0
2020-04-08 10:25:50 GMT 56.137951 52.405388 38,000 272 411 0
2020-04-08 10:25:47 GMT 56.137802 52.417603 38,000 272 411 -64
2020-04-08 10:25:39 GMT 56.137577 52.441006 38,000 272 411 -64
2020-04-08 10:25:36 GMT 56.137436 52.452595 38,000 272 411 -64
2020-04-08 10:25:29 GMT 56.137157 52.474995 38,000 272 411 0
2020-04-08 10:25:25 GMT 56.137024 52.487267 38,000 272 411 0
2020-04-08 10:25:19 GMT 56.136784 52.509670 38,000 272 412 -64
2020-04-08 10:25:16 GMT 56.136612 52.522556 38,025 272 412 0
2020-04-08 10:25:09 GMT 56.136318 52.544689 38,000 272 412 0
2020-04-08 10:25:05 GMT 56.136200 52.556931 38,000 272 412 0
2020-04-08 10:24:59 GMT 56.135899 52.579796 38,025 272 413 -64
2020-04-08 10:24:55 GMT 56.135761 52.592323 38,025 272 413 0
2020-04-08 10:24:48 GMT 56.135483 52.613869 38,000 272 413 0
2020-04-08 10:24:45 GMT 56.135342 52.627171 38,025 272 413 0
2020-04-08 10:24:38 GMT 56.135056 52.649979 38,000 272 414 0
2020-04-08 10:24:34 GMT 56.134872 52.662296 38,000 272 414 -64
2020-04-08 10:24:27 GMT 56.134598 52.685192 38,025 272 414 -64
2020-04-08 10:24:24 GMT 56.134415 52.696838 38,025 272 414 0
2020-04-08 10:24:13 GMT 56.133850 52.733688 38,025 272 413 0
2020-04-08 10:24:04 GMT 56.133339 52.767506 38,000 272 414 0
2020-04-08 10:23:53 GMT 56.132736 52.803471 38,000 272 415 0
2020-04-08 10:23:46 GMT 56.132408 52.826042 38,000 272 415 0
2020-04-08 10:23:42 GMT 56.132172 52.839077 38,000 272 415 0
2020-04-08 10:23:37 GMT 56.131851 52.860031 38,025 272 415 0
2020-04-08 10:23:32 GMT 56.131664 52.874107 38,025 272 415 0
2020-04-08 10:23:26 GMT 56.131290 52.895653 38,000 272 416 0
2020-04-08 10:23:22 GMT 56.131107 52.908356 38,025 272 416 0
2020-04-08 10:23:16 GMT 56.130779 52.931355 38,025 272 416 0
2020-04-08 10:23:12 GMT 56.130592 52.943714 38,025 272 416 0
2020-04-08 10:23:05 GMT 56.130268 52.965691 38,000 272 416 64
2020-04-08 10:23:01 GMT 56.130020 52.980484 38,000 272 416 64
2020-04-08 10:22:56 GMT 56.129707 53.001740 38,000 272 416 0
2020-04-08 10:22:52 GMT 56.129524 53.013756 38,000 272 416 0
2020-04-08 10:22:45 GMT 56.129150 53.037186 38,000 272 416 0
2020-04-08 10:22:41 GMT 56.128918 53.050575 38,000 272 416 0
2020-04-08 10:22:35 GMT 56.128601 53.070873 38,000 272 416 0
2020-04-08 10:22:30 GMT 56.128361 53.085938 38,000 272 416 0
2020-04-08 10:22:20 GMT 56.127731 53.120728 38,000 272 416 0
2020-04-08 10:22:15 GMT 56.127365 53.142033 38,000 272 416 -64
2020-04-08 10:22:10 GMT 56.127090 53.156101 38,000 272 416 -64
2020-04-08 10:22:03 GMT 56.126637 53.180523 38,000 272 416 0
2020-04-08 10:22:00 GMT 56.126450 53.190823 38,000 272 416 0
2020-04-08 10:21:53 GMT 56.125992 53.215279 38,000 272 416 -64
2020-04-08 10:21:49 GMT 56.125763 53.226597 38,025 272 416 -64
2020-04-08 10:21:43 GMT 56.125381 53.247559 38,025 272 416 -64
2020-04-08 10:21:40 GMT 56.125099 53.262321 38,025 272 416 0
2020-04-08 10:21:34 GMT 56.124729 53.283951 38,025 272 416 0
2020-04-08 10:21:28 GMT 56.124451 53.299053 38,025 272 416 0
2020-04-08 10:21:22 GMT 56.124031 53.320683 38,025 272 416 0
2020-04-08 10:21:19 GMT 56.123798 53.334160 38,025 272 416 64
2020-04-08 10:21:08 GMT 56.123146 53.370209 38,025 272 416 64
2020-04-08 10:20:57 GMT 56.122494 53.405571 38,000 272 417 64
2020-04-08 10:20:48 GMT 56.121826 53.442078 37,975 272 417 64
2020-04-08 10:20:40 GMT 56.121376 53.465824 37,975 272 417 0
2020-04-08 10:20:37 GMT 56.121140 53.476784 37,975 273 417 0
2020-04-08 10:20:26 GMT 56.120407 53.513905 37,975 273 416 64
2020-04-08 10:20:16 GMT 56.119656 53.548908 37,975 273 416 -64
2020-04-08 10:20:06 GMT 56.118942 53.582485 38,000 273 415 0
2020-04-08 10:19:56 GMT 56.118164 53.618088 37,975 273 414 64
2020-04-08 10:19:51 GMT 56.117752 53.638584 37,975 273 415 64
2020-04-08 10:19:45 GMT 56.117432 53.652981 37,975 273 415 64
2020-04-08 10:19:36 GMT 56.116673 53.688210 37,950 273 415 0
2020-04-08 10:19:28 GMT 56.116104 53.711826 37,975 273 415 -64
2020-04-08 10:19:25 GMT 56.115829 53.723808 37,975 273 414 0
2020-04-08 10:19:15 GMT 56.115051 53.758350 37,975 273 414 -64
2020-04-08 10:19:10 GMT 56.114532 53.779278 37,975 273 414 -64
2020-04-08 10:19:05 GMT 56.114227 53.794308 37,975 273 413 0
2020-04-08 10:18:56 GMT 56.113586 53.821606 37,975 273 413 0
2020-04-08 10:18:50 GMT 56.113136 53.841679 37,975 273 413 64
2020-04-08 10:18:43 GMT 56.112625 53.865192 37,975 273 414 128
2020-04-08 10:18:32 GMT 56.111801 53.904167 37,950 273 414 64
2020-04-08 10:18:23 GMT 56.111088 53.935661 37,975 273 414 0
2020-04-08 10:18:12 GMT 56.110298 53.971539 37,975 273 415 0
2020-04-08 10:18:02 GMT 56.109558 54.005043 37,975 273 415 0
2020-04-08 10:17:52 GMT 56.108715 54.042690 37,975 273 415 -64
2020-04-08 10:17:42 GMT 56.107922 54.075993 38,000 273 416 -64
2020-04-08 10:17:32 GMT 56.107086 54.110245 38,000 273 415 -64
2020-04-08 10:17:22 GMT 56.106106 54.145515 38,000 273 415 -64
2020-04-08 10:17:11 GMT 56.105118 54.182240 38,025 273 417 -64
2020-04-08 10:17:00 GMT 56.104664 54.219158 38,050 270 420 0
2020-04-08 10:16:51 GMT 56.104935 54.252403 38,050 268 422 64
2020-04-08 10:16:40 GMT 56.105942 54.289024 38,025 266 425 64
2020-04-08 10:16:29 GMT 56.107784 54.326878 38,000 264 428 0
2020-04-08 10:16:19 GMT 56.110203 54.360950 38,025 262 430 0
2020-04-08 10:16:09 GMT 56.113495 54.397221 38,025 260 433 -64
2020-04-08 10:16:02 GMT 56.116379 54.423271 38,025 258 435 0
2020-04-08 10:15:59 GMT 56.117706 54.434177 38,025 257 436 0
2020-04-08 10:15:51 GMT 56.121140 54.459396 38,025 256 437 0
2020-04-08 10:15:48 GMT 56.122681 54.469872 38,025 255 439 0
2020-04-08 10:15:39 GMT 56.128639 54.506092 38,025 253 441 64
2020-04-08 10:15:31 GMT 56.132996 54.530056 38,025 252 442 0
2020-04-08 10:15:28 GMT 56.135056 54.541458 38,025 252 442 0
2020-04-08 10:15:21 GMT 56.139633 54.566513 38,000 252 442 64
2020-04-08 10:15:18 GMT 56.141396 54.576218 38,000 252 443 64
2020-04-08 10:15:08 GMT 56.148052 54.612782 38,000 253 443 64
2020-04-08 10:15:01 GMT 56.152863 54.639256 38,000 253 443 0
2020-04-08 10:14:57 GMT 56.154419 54.647995 37,975 253 443 0
2020-04-08 10:14:50 GMT 56.159042 54.673794 38,000 253 443 0
2020-04-08 10:14:47 GMT 56.160828 54.683949 37,975 253 443 -64
2020-04-08 10:14:39 GMT 56.165634 54.710751 38,000 253 443 0
2020-04-08 10:14:36 GMT 56.167507 54.721272 38,000 253 443 0
2020-04-08 10:14:27 GMT 56.173737 54.756107 38,000 253 443 -64
2020-04-08 10:14:19 GMT 56.178223 54.781242 38,000 253 443 0
2020-04-08 10:14:16 GMT 56.180218 54.792423 38,000 253 443 0
2020-04-08 10:14:10 GMT 56.184540 54.816452 38,000 253 443 -64
2020-04-08 10:14:06 GMT 56.186554 54.828018 38,000 253 443 -64
2020-04-08 10:13:59 GMT 56.190552 54.850361 38,025 253 442 -64
2020-04-08 10:13:56 GMT 56.192833 54.863235 38,025 253 442 -64
2020-04-08 10:13:48 GMT 56.197403 54.889111 38,025 253 442 -64
2020-04-08 10:13:45 GMT 56.199234 54.899597 38,025 253 442 -64
2020-04-08 10:13:39 GMT 56.203217 54.922371 38,025 253 443 0
2020-04-08 10:13:35 GMT 56.205551 54.935635 38,025 253 443 64
2020-04-08 10:13:28 GMT 56.209488 54.958023 38,025 253 443 64
2020-04-08 10:13:25 GMT 56.211826 54.971294 38,025 253 443 64
2020-04-08 10:13:15 GMT 56.218369 55.008461 38,000 253 444 64
2020-04-08 10:13:08 GMT 56.222069 55.029572 38,000 253 445 0
2020-04-08 10:13:04 GMT 56.224583 55.043995 38,000 253 445 0
2020-04-08 10:12:57 GMT 56.228867 55.068195 38,000 253 445 0
2020-04-08 10:12:54 GMT 56.231007 55.080471 38,000 253 445 0
2020-04-08 10:12:47 GMT 56.234985 55.103012 38,000 253 445 0
2020-04-08 10:12:44 GMT 56.237289 55.116348 38,000 253 444 0
2020-04-08 10:12:38 GMT 56.241108 55.138149 38,000 253 444 0
2020-04-08 10:12:33 GMT 56.243591 55.152199 38,000 253 444 0
2020-04-08 10:12:27 GMT 56.247253 55.173340 38,000 253 444 0
2020-04-08 10:12:23 GMT 56.249863 55.188404 38,000 253 444 0
2020-04-08 10:12:17 GMT 56.253525 55.209461 38,000 253 444 0
2020-04-08 10:12:13 GMT 56.255997 55.223862 38,000 253 443 64
2020-04-08 10:12:06 GMT 56.259979 55.247082 38,000 253 443 0
2020-04-08 10:12:03 GMT 56.262383 55.261147 38,000 253 443 0
2020-04-08 10:11:56 GMT 56.266155 55.282948 38,000 253 443 64
2020-04-08 10:11:51 GMT 56.268715 55.298054 38,000 253 443 0
2020-04-08 10:11:47 GMT 56.272160 55.318134 38,000 253 443 0
2020-04-08 10:11:42 GMT 56.274673 55.332897 38,000 253 443 0
2020-04-08 10:11:36 GMT 56.278244 55.353947 38,000 253 443 0
2020-04-08 10:11:32 GMT 56.281097 55.370495 38,000 253 443 0
2020-04-08 10:11:25 GMT 56.284401 55.389805 38,000 253 442 0
2020-04-08 10:11:21 GMT 56.287056 55.405254 38,000 253 443 64
2020-04-08 10:11:15 GMT 56.290466 55.424942 38,000 253 443 0
2020-04-08 10:11:11 GMT 56.293396 55.441757 38,000 253 443 0
2020-04-08 10:11:05 GMT 56.296600 55.460316 38,000 253 443 -64
2020-04-08 10:11:00 GMT 56.299671 55.477867 38,000 253 443 128
2020-04-08 10:10:56 GMT 56.302963 55.496853 38,000 253 443 64
2020-04-08 10:10:51 GMT 56.305893 55.513664 37,975 253 443 128
2020-04-08 10:10:44 GMT 56.309692 55.535805 37,975 253 442 64
2020-04-08 10:10:40 GMT 56.312332 55.550907 37,975 253 443 64
2020-04-08 10:10:34 GMT 56.315460 55.569180 37,975 253 443 0
2020-04-08 10:10:30 GMT 56.318340 55.586102 37,975 253 443 -64
2020-04-08 10:10:24 GMT 56.321552 55.605068 37,975 254 442 -64
2020-04-08 10:10:20 GMT 56.324486 55.622234 37,975 254 442 -64
2020-04-08 10:10:15 GMT 56.327511 55.640175 37,975 254 442 0
2020-04-08 10:10:09 GMT 56.330627 55.658798 37,975 254 441 0
2020-04-08 10:10:04 GMT 56.333405 55.675301 38,000 254 441 -64
2020-04-08 10:09:58 GMT 56.336746 55.695274 38,000 254 441 -64
2020-04-08 10:09:54 GMT 56.339520 55.711758 38,000 254 440 -64
2020-04-08 10:09:48 GMT 56.342640 55.730293 38,000 254 440 -64
2020-04-08 10:09:43 GMT 56.345947 55.750290 38,000 254 440 0
2020-04-08 10:09:39 GMT 56.348694 55.766769 38,000 254 440 128
2020-04-08 10:09:33 GMT 56.351715 55.784660 38,000 254 440 64
2020-04-08 10:09:28 GMT 56.354790 55.803249 37,975 254 441 64
2020-04-08 10:09:23 GMT 56.358078 55.822865 37,975 254 441 0
2020-04-08 10:09:17 GMT 56.360886 55.839729 37,975 254 441 -64
2020-04-08 10:09:12 GMT 56.363819 55.857327 38,000 254 441 0
2020-04-08 10:09:08 GMT 56.366798 55.875175 38,000 254 441 0
2020-04-08 10:09:03 GMT 56.369453 55.891056 37,975 254 441 0
2020-04-08 10:08:57 GMT 56.372944 55.912086 38,000 254 441 0
2020-04-08 10:08:52 GMT 56.375748 55.928982 38,000 254 441 0
2020-04-08 10:08:46 GMT 56.378902 55.947876 38,000 254 441 0
2020-04-08 10:08:40 GMT 56.382767 55.971134 38,000 254 441 0
2020-04-08 10:08:37 GMT 56.384956 55.984097 38,000 254 441 0
2020-04-08 10:08:33 GMT 56.387329 55.998516 38,000 254 441 0
2020-04-08 10:08:26 GMT 56.390961 56.020317 38,000 254 441 -64
2020-04-08 10:08:21 GMT 56.393429 56.035423 38,000 254 441 -64
2020-04-08 10:08:15 GMT 56.397060 56.057308 38,000 254 441 -64
2020-04-08 10:08:10 GMT 56.400040 56.075249 38,025 254 441 -64
2020-04-08 10:08:06 GMT 56.403030 56.093197 38,025 254 441 0
2020-04-08 10:08:01 GMT 56.405483 56.107948 38,000 254 441 0
2020-04-08 10:07:55 GMT 56.409073 56.129398 38,000 254 442 0
2020-04-08 10:07:52 GMT 56.411163 56.142113 38,000 254 442 -64
2020-04-08 10:07:44 GMT 56.415306 56.166828 38,025 254 442 -64
2020-04-08 10:07:40 GMT 56.417679 56.180920 38,025 254 442 -64
2020-04-08 10:07:35 GMT 56.421310 56.202793 38,025 254 442 -64
2020-04-08 10:07:30 GMT 56.423409 56.215496 38,025 254 442 0
2020-04-08 10:07:23 GMT 56.427273 56.240215 38,025 256 440 64
2020-04-08 10:07:20 GMT 56.429226 56.254120 38,025 257 439 0
2020-04-08 10:07:13 GMT 56.432053 56.276134 38,025 258 439 0
2020-04-08 10:07:09 GMT 56.433929 56.291531 38,025 258 438 0
2020-04-08 10:07:04 GMT 56.436443 56.312572 38,025 258 438 64
2020-04-08 10:07:01 GMT 56.437698 56.322868 38,025 258 438 0
2020-04-08 10:06:52 GMT 56.441208 56.351871 38,025 258 440 -64
2020-04-08 10:06:48 GMT 56.442902 56.365856 38,025 258 440 0
2020-04-08 10:06:42 GMT 56.445511 56.387661 38,025 258 440 64
2020-04-08 10:06:33 GMT 56.449757 56.422775 38,000 258 440 64
2020-04-08 10:06:21 GMT 56.454456 56.461918 38,000 258 441 0
2020-04-08 10:06:16 GMT 56.456970 56.483028 38,000 258 440 0
2020-04-08 10:06:10 GMT 56.459793 56.506432 38,000 258 440 -64
2020-04-08 10:06:02 GMT 56.463257 56.535561 38,025 258 441 0
2020-04-08 10:05:57 GMT 56.464920 56.549129 38,025 258 440 0
2020-04-08 10:05:48 GMT 56.468700 56.580708 38,000 258 440 -64
2020-04-08 10:05:41 GMT 56.472054 56.608772 38,000 258 440 64
2020-04-08 10:05:31 GMT 56.476616 56.646793 38,000 258 440 0
2020-04-08 10:05:20 GMT 56.481037 56.684216 38,000 258 441 0
2020-04-08 10:05:17 GMT 56.482086 56.693199 38,000 259 440 -64
2020-04-08 10:05:10 GMT 56.485275 56.720524 38,000 259 440 -64
2020-04-08 10:05:07 GMT 56.486206 56.728420 38,000 259 440 -64
2020-04-08 10:05:00 GMT 56.490860 56.768333 38,000 259 440 -64
2020-04-08 10:04:49 GMT 56.493980 56.794853 38,025 259 440 64
2020-04-08 10:04:46 GMT 56.495087 56.804226 38,000 259 440 64
2020-04-08 10:04:38 GMT 56.498337 56.831860 38,000 259 440 0
2020-04-08 10:04:29 GMT 56.503647 56.877884 38,000 259 440 64
2020-04-08 10:04:18 GMT 56.506897 56.905933 37,975 259 440 64
2020-04-08 10:04:07 GMT 56.511250 56.943939 37,975 259 440 64
2020-04-08 10:03:57 GMT 56.515503 56.980923 37,975 259 439 0
2020-04-08 10:03:47 GMT 56.519726 57.017586 37,975 259 440 64
2020-04-08 10:03:35 GMT 56.524658 57.060741 37,975 259 440 -64
2020-04-08 10:03:25 GMT 56.528687 57.095947 38,000 259 439 -64
2020-04-08 10:03:15 GMT 56.532619 57.130451 38,000 259 439 0
2020-04-08 10:03:06 GMT 56.536716 57.166328 38,000 259 439 0
2020-04-08 10:02:55 GMT 56.541092 57.204350 38,000 259 439 -128
2020-04-08 10:02:45 GMT 56.545235 57.240574 38,000 259 439 -128
2020-04-08 10:02:35 GMT 56.549519 57.277565 38,025 259 439 -64
2020-04-08 10:02:24 GMT 56.553799 57.314899 38,025 259 439 64
2020-04-08 10:02:13 GMT 56.558128 57.352581 38,000 259 439 64
2020-04-08 10:02:04 GMT 56.562366 57.390430 38,000 259 440 0
2020-04-08 10:01:53 GMT 56.566555 57.427509 38,000 259 440 0
2020-04-08 10:01:42 GMT 56.570698 57.464676 38,000 259 440 0
2020-04-08 10:01:33 GMT 56.574646 57.500362 38,000 259 440 0
2020-04-08 10:01:22 GMT 56.578796 57.537888 38,000 259 440 0
2020-04-08 10:01:11 GMT 56.583035 57.576599 38,000 259 440 0
2020-04-08 10:01:01 GMT 56.587418 57.616299 38,000 259 440 0
2020-04-08 10:00:50 GMT 56.591370 57.652390 38,000 259 440 64
2020-04-08 10:00:40 GMT 56.595474 57.690067 38,000 259 441 0
2020-04-08 10:00:31 GMT 56.599274 57.724743 38,000 259 441 0
2020-04-08 10:00:20 GMT 56.603439 57.762768 38,000 259 441 -64
2020-04-08 10:00:09 GMT 56.607880 57.802937 38,000 259 441 0
2020-04-08 09:59:59 GMT 56.612000 57.840958 38,000 259 441 0
2020-04-08 09:59:49 GMT 56.615753 57.875717 38,000 259 441 0
2020-04-08 09:59:38 GMT 56.619827 57.912971 38,000 259 441 64
2020-04-08 09:59:29 GMT 56.623859 57.950665 38,000 259 441 -64
2020-04-08 09:59:18 GMT 56.627865 57.988056 38,000 260 441 0
2020-04-08 09:59:07 GMT 56.631962 58.026066 38,025 260 441 0
2020-04-08 09:58:58 GMT 56.635849 58.062744 38,025 260 441 0
2020-04-08 09:58:50 GMT 56.638943 58.092072 38,000 260 442 64
2020-04-08 09:58:47 GMT 56.639828 58.100487 38,000 260 441 64
2020-04-08 09:58:36 GMT 56.643879 58.139381 38,000 260 442 0
2020-04-08 09:58:27 GMT 56.647568 58.175011 38,000 260 442 64
2020-04-08 09:58:15 GMT 56.651825 58.216209 38,000 260 442 0
2020-04-08 09:58:05 GMT 56.655376 58.250397 38,000 260 442 64
2020-04-08 09:57:55 GMT 56.659470 58.289337 38,000 260 442 0
2020-04-08 09:57:44 GMT 56.663429 58.327213 38,000 260 442 0
2020-04-08 09:57:35 GMT 56.667248 58.363274 38,000 260 442 0
2020-04-08 09:57:22 GMT 56.671783 58.407009 38,000 260 442 0
2020-04-08 09:57:13 GMT 56.675209 58.440090 38,000 260 442 0
2020-04-08 09:57:03 GMT 56.679199 58.478764 38,000 260 442 -64
2020-04-08 09:56:52 GMT 56.683121 58.517082 38,000 260 442 0
2020-04-08 09:56:43 GMT 56.686707 58.552078 38,000 260 442 0
2020-04-08 09:56:37 GMT 56.688988 58.574673 38,000 260 442 0
2020-04-08 09:56:32 GMT 56.690552 58.590000 38,000 260 442 64
2020-04-08 09:56:23 GMT 56.694294 58.626858 38,000 260 442 64
2020-04-08 09:56:11 GMT 56.698471 58.668449 37,975 260 443 0
2020-04-08 09:56:02 GMT 56.702023 58.703850 37,975 260 443 0
2020-04-08 09:55:51 GMT 56.705746 58.740707 37,975 260 442 0
2020-04-08 09:55:40 GMT 56.709732 58.780205 37,975 260 442 0
2020-04-08 09:55:30 GMT 56.713348 58.816338 37,975 260 442 0
2020-04-08 09:55:20 GMT 56.717148 58.854275 37,975 260 442 -64
2020-04-08 09:55:09 GMT 56.721062 58.893719 37,975 260 442 0
2020-04-08 09:54:59 GMT 56.724602 58.929867 38,000 260 442 -64
2020-04-08 09:54:50 GMT 56.728325 58.968231 38,000 260 442 0
2020-04-08 09:54:39 GMT 56.731842 59.004478 38,000 260 442 0
2020-04-08 09:54:28 GMT 56.735596 59.042847 38,000 260 442 0
2020-04-08 09:54:18 GMT 56.739166 59.079063 38,000 260 443 -64
2020-04-08 09:54:07 GMT 56.743176 59.120090 38,025 260 443 -64
2020-04-08 09:53:58 GMT 56.746582 59.155285 38,025 261 443 0
2020-04-08 09:53:47 GMT 56.750519 59.195621 38,025 261 443 64
2020-04-08 09:53:37 GMT 56.754089 59.232700 38,000 261 444 64
2020-04-08 09:53:27 GMT 56.757614 59.269093 38,000 261 445 0
2020-04-08 09:53:16 GMT 56.761414 59.309261 38,000 261 445 0
2020-04-08 09:53:07 GMT 56.764729 59.343891 38,000 261 445 0
2020-04-08 09:52:56 GMT 56.768406 59.382256 38,025 261 445 0
2020-04-08 09:52:45 GMT 56.772171 59.422131 38,025 261 445 0
2020-04-08 09:52:36 GMT 56.775742 59.460155 38,000 261 446 0
2020-04-08 09:52:23 GMT 56.779812 59.503723 38,000 261 446 0
2020-04-08 09:52:12 GMT 56.783661 59.544437 38,000 261 446 0
2020-04-08 09:52:05 GMT 56.786362 59.573277 38,025 261 446 0
2020-04-08 09:51:54 GMT 56.789932 59.611385 38,025 261 446 0
2020-04-08 09:51:44 GMT 56.793449 59.649117 38,025 261 446 0
2020-04-08 09:51:32 GMT 56.797642 59.693859 38,025 261 446 -64
2020-04-08 09:51:23 GMT 56.800919 59.729321 38,025 261 446 0
2020-04-08 09:51:12 GMT 56.804352 59.766312 38,025 261 446 64
2020-04-08 09:51:01 GMT 56.807968 59.805882 38,000 261 446 64
2020-04-08 09:50:52 GMT 56.811081 59.840298 38,025 261 445 0
2020-04-08 09:50:47 GMT 56.813190 59.863617 38,025 261 445 0
2020-04-08 09:50:41 GMT 56.814678 59.880272 38,000 261 445 64
2020-04-08 09:50:38 GMT 56.815842 59.893208 38,000 261 445 64
2020-04-08 09:50:32 GMT 56.817657 59.913586 38,000 261 446 64
2020-04-08 09:50:29 GMT 56.818867 59.926521 38,000 261 445 64
2020-04-08 09:50:22 GMT 56.821381 59.954697 38,000 261 445 64
2020-04-08 09:50:19 GMT 56.822296 59.965012 38,000 261 445 64
2020-04-08 09:50:11 GMT 56.824631 59.990932 38,000 261 445 0
2020-04-08 09:50:08 GMT 56.825729 60.003120 38,000 261 445 0
2020-04-08 09:50:01 GMT 56.828178 60.030094 38,000 261 444 0
2020-04-08 09:49:58 GMT 56.829163 60.041225 38,000 261 444 0
2020-04-08 09:49:51 GMT 56.831543 60.067749 37,975 261 444 64
2020-04-08 09:49:47 GMT 56.832508 60.078823 37,975 261 444 64
2020-04-08 09:49:41 GMT 56.834743 60.103985 37,975 261 444 64
2020-04-08 09:49:38 GMT 56.835892 60.116844 37,975 261 444 64
2020-04-08 09:49:30 GMT 56.838135 60.141907 37,975 261 443 0
2020-04-08 09:49:27 GMT 56.839211 60.154488 37,975 261 443 0
2020-04-08 09:49:21 GMT 56.841400 60.179207 37,975 261 443 0
2020-04-08 09:49:16 GMT 56.842712 60.193577 37,975 261 442 0
2020-04-08 09:49:09 GMT 56.845451 60.224834 37,975 261 442 0
2020-04-08 09:49:06 GMT 56.845963 60.230682 37,975 261 442 0
2020-04-08 09:49:00 GMT 56.848103 60.254959 37,975 262 442 0
2020-04-08 09:48:57 GMT 56.849220 60.267807 37,975 262 441 0
2020-04-08 09:48:50 GMT 56.851360 60.292439 37,975 262 441 0
2020-04-08 09:48:46 GMT 56.852417 60.304897 37,975 262 441 0
2020-04-08 09:48:39 GMT 56.854660 60.330563 37,950 262 441 0
2020-04-08 09:48:35 GMT 56.855831 60.344536 37,950 261 440 0
2020-04-08 09:48:29 GMT 56.857956 60.369015 37,950 261 440 0
2020-04-08 09:48:26 GMT 56.859009 60.381119 37,950 261 440 -64
2020-04-08 09:48:19 GMT 56.861160 60.405663 37,975 261 440 -64
2020-04-08 09:48:14 GMT 56.862579 60.422501 37,975 261 440 -64
2020-04-08 09:48:05 GMT 56.865513 60.456524 37,975 261 439 0
2020-04-08 09:47:55 GMT 56.868484 60.490551 37,975 261 439 -64
2020-04-08 09:47:46 GMT 56.871643 60.526772 37,975 261 439 0
2020-04-08 09:47:36 GMT 56.878189 60.602901 37,975 262 440 0
2020-04-08 09:47:26 GMT 56.878189 60.602901 37,975 262 440 0
2020-04-08 09:47:20 GMT 56.879791 60.621529 37,975 262 440 0
2020-04-08 09:47:17 GMT 56.880737 60.632481 37,975 262 440 0
2020-04-08 09:47:13 GMT 56.881668 60.643909 37,975 262 440 0
2020-04-08 09:47:04 GMT 56.884880 60.681656 38,000 262 440 -64
2020-04-08 09:46:57 GMT 56.887115 60.708057 38,000 262 440 -64
2020-04-08 09:46:53 GMT 56.888092 60.720196 38,000 262 440 -64
2020-04-08 09:46:43 GMT 56.891163 60.757229 38,000 262 440 0
2020-04-08 09:46:36 GMT 56.893250 60.782890 38,000 262 440 64
2020-04-08 09:46:33 GMT 56.894257 60.795078 38,000 262 440 64
2020-04-08 09:46:26 GMT 56.896286 60.820045 37,975 262 441 0
2020-04-08 09:46:22 GMT 56.897354 60.832893 38,000 262 441 0
2020-04-08 09:46:16 GMT 56.899338 60.857563 38,000 262 440 0
2020-04-08 09:46:12 GMT 56.900391 60.870438 38,000 262 440 0
2020-04-08 09:46:05 GMT 56.902431 60.895447 38,000 262 439 0
2020-04-08 09:46:02 GMT 56.903458 60.908291 38,000 262 439 0
2020-04-08 09:45:55 GMT 56.905472 60.933182 38,000 262 438 0
2020-04-08 09:45:52 GMT 56.906433 60.944881 38,000 262 439 0
2020-04-08 09:45:44 GMT 56.908573 60.970844 38,025 262 438 0
2020-04-08 09:45:40 GMT 56.909786 60.985905 38,025 262 438 0
2020-04-08 09:45:33 GMT 56.912346 61.016914 38,000 262 438 0
2020-04-08 09:45:30 GMT 56.912857 61.022762 38,000 262 438 0
2020-04-08 09:45:21 GMT 56.915791 61.058201 38,025 262 437 0
2020-04-08 09:45:11 GMT 56.918861 61.096565 38,000 262 437 0
2020-04-08 09:45:04 GMT 56.920807 61.121323 38,000 262 437 0
2020-04-08 09:45:00 GMT 56.921749 61.132980 38,000 262 437 0
2020-04-08 09:44:52 GMT 56.924400 61.167267 38,000 262 436 0
2020-04-08 09:44:49 GMT 56.924698 61.170933 38,000 262 436 0
2020-04-08 09:44:43 GMT 56.926682 61.196064 38,000 262 436 0
2020-04-08 09:44:40 GMT 56.927708 61.208820 38,000 262 435 0
2020-04-08 09:44:32 GMT 56.929642 61.233158 38,000 262 436 64
2020-04-08 09:44:29 GMT 56.930603 61.245174 38,000 262 436 128
2020-04-08 09:44:23 GMT 56.932755 61.271782 37,975 262 436 384
2020-04-08 09:44:19 GMT 56.933624 61.282337 37,950 262 436 448
2020-04-08 09:44:12 GMT 56.935638 61.307831 37,900 262 436 448
2020-04-08 09:44:08 GMT 56.936646 61.319847 37,875 262 436 448
2020-04-08 09:44:02 GMT 56.938740 61.345795 37,800 262 436 448
2020-04-08 09:43:59 GMT 56.939671 61.357845 37,800 262 436 448
2020-04-08 09:43:50 GMT 56.942184 61.389198 37,725 262 435 512
2020-04-08 09:43:47 GMT 56.942791 61.396828 37,725 262 435 512
2020-04-08 09:43:40 GMT 56.945206 61.428082 37,625 262 435 512
2020-04-08 09:43:37 GMT 56.945618 61.433575 37,625 262 434 512
2020-04-08 09:43:31 GMT 56.947586 61.458584 37,550 262 433 512
2020-04-08 09:43:28 GMT 56.948608 61.472050 37,525 262 433 448
2020-04-08 09:43:18 GMT 56.951431 61.508244 37,450 262 432 448
2020-04-08 09:43:11 GMT 56.953217 61.531334 37,400 263 431 448
2020-04-08 09:43:07 GMT 56.954197 61.544258 37,375 263 431 512
2020-04-08 09:43:00 GMT 56.956100 61.569099 37,300 262 430 512
2020-04-08 09:42:56 GMT 56.957108 61.582401 37,300 262 430 512
2020-04-08 09:42:50 GMT 56.958897 61.605747 37,225 263 429 512
2020-04-08 09:42:47 GMT 56.959873 61.619038 37,200 263 429 576
2020-04-08 09:42:39 GMT 56.961739 61.643402 37,125 263 428 640
2020-04-08 09:42:36 GMT 56.962692 61.655617 37,100 263 428 768
2020-04-08 09:42:30 GMT 56.964523 61.679909 37,000 263 427 896
2020-04-08 09:42:25 GMT 56.965485 61.692780 36,950 263 427 960
2020-04-08 09:42:18 GMT 56.967369 61.718269 36,825 263 428 1024
2020-04-08 09:42:15 GMT 56.968140 61.728313 36,775 263 429 1024
2020-04-08 09:42:09 GMT 56.970016 61.753464 36,650 263 430 896
2020-04-08 09:42:06 GMT 56.970932 61.765308 36,625 263 430 832
2020-04-08 09:41:59 GMT 56.972958 61.792248 36,525 263 428 512
2020-04-08 09:41:54 GMT 56.973793 61.803413 36,500 263 428 320
2020-04-08 09:41:48 GMT 56.975609 61.827778 36,475 263 426 256
2020-04-08 09:41:44 GMT 56.976540 61.840622 36,475 263 425 320
2020-04-08 09:41:35 GMT 56.979099 61.875088 36,375 263 423 640
2020-04-08 09:41:25 GMT 56.981781 61.911221 36,275 263 422 960
2020-04-08 09:41:18 GMT 56.983803 61.938881 36,100 263 423 1536
2020-04-08 09:41:14 GMT 56.984528 61.948730 36,025 263 424 1792
2020-04-08 09:41:04 GMT 56.987106 61.984421 35,650 263 429 2816
2020-04-08 09:40:57 GMT 56.988968 62.010014 35,275 263 435 3520
2020-04-08 09:40:54 GMT 56.989929 62.023487 35,075 263 438 3456
2020-04-08 09:40:47 GMT 56.992630 62.060566 34,375 263 447 2560
2020-04-08 09:40:43 GMT 56.992630 62.060566 34,575 263 447 2560
2020-04-08 09:40:36 GMT 56.994553 62.086918 34,075 263 451 1728
2020-04-08 09:40:33 GMT 56.995396 62.098980 34,075 263 451 1728
2020-04-08 09:40:25 GMT 56.997391 62.126656 34,025 263 452 1280
2020-04-08 09:40:22 GMT 56.998188 62.138054 33,975 263 452 1088
2020-04-08 09:40:16 GMT 57.000046 62.164249 33,875 263 452 640
2020-04-08 09:40:13 GMT 57.000980 62.177921 33,825 263 451 512
2020-04-08 09:40:06 GMT 57.002796 62.203972 33,750 263 450 896
2020-04-08 09:40:01 GMT 57.003754 62.218323 33,700 263 450 1088
2020-04-08 09:39:55 GMT 57.005402 62.242527 33,575 263 449 1088
2020-04-08 09:39:51 GMT 57.006226 62.254971 33,525 263 449 1088
2020-04-08 09:39:42 GMT 57.008972 62.293427 33,350 263 448 960
2020-04-08 09:39:32 GMT 57.011734 62.332527 33,200 263 447 768
2020-04-08 09:39:25 GMT 57.013550 62.358044 33,100 263 445 512
2020-04-08 09:39:20 GMT 57.014465 62.371532 33,100 263 445 384
2020-04-08 09:39:14 GMT 57.016342 62.397560 33,050 263 441 256
2020-04-08 09:39:11 GMT 57.017090 62.408367 33,025 263 440 256
2020-04-08 09:39:04 GMT 57.018902 62.434151 33,025 263 437 256
2020-04-08 09:39:01 GMT 57.019821 62.446632 33,000 263 436 192
2020-04-08 09:38:54 GMT 57.021606 62.472210 33,000 263 432 192
2020-04-08 09:38:50 GMT 57.022522 62.484913 32,975 263 431 448
2020-04-08 09:38:43 GMT 57.024258 62.509903 32,900 263 429 1280
2020-04-08 09:38:40 GMT 57.025002 62.520359 32,825 263 430 1664
2020-04-08 09:38:33 GMT 57.026772 62.545609 32,575 263 432 2688
2020-04-08 09:38:29 GMT 57.027649 62.557957 32,425 263 434 3008
2020-04-08 09:38:20 GMT 57.030262 62.596111 31,850 263 442 2944
2020-04-08 09:38:13 GMT 57.032043 62.621815 31,550 263 446 2368
2020-04-08 09:38:09 GMT 57.032913 62.634857 31,400 263 448 1920
2020-04-08 09:38:02 GMT 57.034637 62.660080 31,200 263 449 1472
2020-04-08 09:37:59 GMT 57.035431 62.672195 31,125 263 449 1280
2020-04-08 09:37:52 GMT 57.037292 62.699684 30,975 263 448 1344
2020-04-08 09:37:49 GMT 57.038128 62.712177 30,900 263 448 1472
2020-04-08 09:37:39 GMT 57.040741 62.750561 30,650 263 449 1472
2020-04-08 09:37:32 GMT 57.042572 62.778542 30,475 264 449 1344
2020-04-08 09:37:28 GMT 57.043304 62.789440 30,425 264 448 1152
2020-04-08 09:37:21 GMT 57.045044 62.815788 30,300 264 447 832
2020-04-08 09:37:18 GMT 57.045811 62.827087 30,250 264 446 832
2020-04-08 09:37:10 GMT 57.047699 62.855961 30,150 264 445 960
2020-04-08 09:37:07 GMT 57.048649 62.870590 30,075 264 444 960
2020-04-08 09:36:58 GMT 57.050858 62.903767 29,925 264 442 960
2020-04-08 09:36:50 GMT 57.052597 62.929688 29,825 264 440 1024
2020-04-08 09:36:47 GMT 57.053467 62.943077 29,775 264 440 960
2020-04-08 09:36:40 GMT 57.055161 62.968910 29,650 264 438 1024
2020-04-08 09:36:36 GMT 57.055984 62.981098 29,600 264 437 1024
2020-04-08 09:36:27 GMT 57.058426 63.018555 29,400 264 436 1280
2020-04-08 09:36:20 GMT 57.060101 63.044159 29,250 264 435 1280
2020-04-08 09:36:16 GMT 57.060837 63.055172 29,175 264 435 1280
2020-04-08 09:36:09 GMT 57.062614 63.082874 29,025 264 434 1216
2020-04-08 09:36:06 GMT 57.063263 63.092766 28,950 264 433 1088
2020-04-08 09:35:59 GMT 57.064957 63.119286 28,850 264 430 832
2020-04-08 09:35:55 GMT 57.065689 63.130531 28,800 264 429 960
2020-04-08 09:35:49 GMT 57.067272 63.155525 28,675 264 427 1152
2020-04-08 09:35:46 GMT 57.068024 63.167782 28,625 264 427 1152
2020-04-08 09:35:39 GMT 57.069672 63.193619 28,475 264 426 1280
2020-04-08 09:35:35 GMT 57.070297 63.203636 28,425 264 425 1280
2020-04-08 09:35:28 GMT 57.071915 63.229836 28,250 264 424 1344
2020-04-08 09:35:25 GMT 57.072601 63.241253 28,175 264 423 1344
2020-04-08 09:35:15 GMT 57.074982 63.280132 27,925 264 422 1344
2020-04-08 09:35:05 GMT 57.076950 63.313866 27,725 264 420 1344
2020-04-08 09:34:57 GMT 57.078445 63.339638 27,550 265 419 1408
2020-04-08 09:34:54 GMT 57.079102 63.351376 27,475 265 419 1408
2020-04-08 09:34:47 GMT 57.080429 63.375320 27,300 264 418 1472
2020-04-08 09:34:43 GMT 57.081097 63.387302 27,225 264 418 1344
2020-04-08 09:34:34 GMT 57.084030 63.423363 27,000 259 419 1280
2020-04-08 09:34:27 GMT 57.086792 63.448105 26,850 258 418 1472
2020-04-08 09:34:23 GMT 57.088032 63.458538 26,775 258 418 1472
2020-04-08 09:34:16 GMT 57.090820 63.482349 26,600 258 416 1408
2020-04-08 09:34:13 GMT 57.092178 63.494156 26,525 258 416 1408
2020-04-08 09:34:06 GMT 57.094940 63.517883 26,350 258 415 1344
2020-04-08 09:34:03 GMT 57.096222 63.528873 26,300 259 414 1344
2020-04-08 09:33:56 GMT 57.099106 63.553593 26,125 258 412 1344
2020-04-08 09:33:53 GMT 57.100571 63.566208 26,050 258 411 1408
2020-04-08 09:33:46 GMT 57.103226 63.589382 25,900 258 410 1472
2020-04-08 09:33:42 GMT 57.104420 63.599586 25,825 258 409 1472
2020-04-08 09:33:35 GMT 57.107254 63.623714 25,650 258 408 1600
2020-04-08 09:33:32 GMT 57.108562 63.634495 25,550 258 407 1664
2020-04-08 09:33:25 GMT 57.111404 63.658417 25,350 258 406 1728
2020-04-08 09:33:21 GMT 57.112701 63.669205 25,275 258 406 1856
2020-04-08 09:33:15 GMT 57.115593 63.693768 25,025 259 405 2176
2020-04-08 09:33:12 GMT 57.116711 63.703602 24,925 259 405 2176
2020-04-08 09:33:04 GMT 57.119225 63.727879 24,650 261 404 1984
2020-04-08 09:33:00 GMT 57.120293 63.740105 24,550 262 403 1920
2020-04-08 09:32:51 GMT 57.122669 63.772976 24,250 265 400 1664
2020-04-08 09:32:41 GMT 57.124374 63.807995 23,950 267 396 1792
2020-04-08 09:32:34 GMT 57.125198 63.831856 23,750 267 395 1728
2020-04-08 09:32:30 GMT 57.125603 63.843235 23,650 267 394 1664
2020-04-08 09:32:23 GMT 57.126434 63.866272 23,475 267 393 1536
2020-04-08 09:32:20 GMT 57.126801 63.876572 23,400 267 391 1472
2020-04-08 09:32:10 GMT 57.127945 63.910046 23,150 267 388 1472
2020-04-08 09:32:00 GMT 57.129135 63.945148 22,875 267 385 1856
2020-04-08 09:31:52 GMT 57.129929 63.968075 22,650 267 384 1920
2020-04-08 09:31:49 GMT 57.130257 63.977112 22,550 267 383 1856
2020-04-08 09:31:42 GMT 57.131046 64.000854 22,325 267 382 1920
2020-04-08 09:31:38 GMT 57.131424 64.011841 22,225 267 381 1984
2020-04-08 09:31:32 GMT 57.132210 64.034164 22,000 267 380 2048
2020-04-08 09:31:28 GMT 57.132584 64.045151 21,875 267 379 2048
2020-04-08 09:31:22 GMT 57.133327 64.067039 21,650 267 378 2048
2020-04-08 09:31:19 GMT 57.133667 64.077332 21,550 267 378 1920
2020-04-08 09:31:11 GMT 57.134445 64.100334 21,300 267 376 1920
2020-04-08 09:31:08 GMT 57.134811 64.110207 21,200 267 375 2048
2020-04-08 09:31:01 GMT 57.135590 64.133034 20,950 267 374 2368
2020-04-08 09:30:58 GMT 57.135910 64.142906 20,825 267 373 2304
2020-04-08 09:30:50 GMT 57.136681 64.166000 20,575 267 372 1856
2020-04-08 09:30:47 GMT 57.137009 64.176125 20,475 267 371 1728
2020-04-08 09:30:41 GMT 57.137787 64.198090 20,275 267 368 1728
2020-04-08 09:30:37 GMT 57.138123 64.207466 20,175 267 367 1792
2020-04-08 09:30:30 GMT 57.138885 64.230194 19,950 267 365 2048
2020-04-08 09:30:27 GMT 57.139240 64.239540 19,850 267 364 2304
2020-04-08 09:30:20 GMT 57.139984 64.261780 19,550 267 364 2624
2020-04-08 09:30:16 GMT 57.140350 64.271652 19,400 267 364 2624
2020-04-08 09:30:07 GMT 57.141380 64.302887 18,975 267 364 2304
2020-04-08 09:29:59 GMT 57.142136 64.325462 18,725 267 363 2048
2020-04-08 09:29:56 GMT 57.142456 64.334396 18,625 267 362 1792
2020-04-08 09:29:49 GMT 57.143150 64.357025 18,425 267 358 1344
2020-04-08 09:29:45 GMT 57.143509 64.367355 18,375 267 356 1408
2020-04-08 09:29:39 GMT 57.144131 64.387505 18,200 267 352 1664
2020-04-08 09:29:35 GMT 57.144455 64.397423 18,100 267 351 1792
2020-04-08 09:29:29 GMT 57.145157 64.419106 17,850 267 348 2304
2020-04-08 09:29:26 GMT 57.145386 64.427689 17,750 267 348 2432
2020-04-08 09:29:15 GMT 57.146301 64.457474 17,325 268 347 2560
2020-04-08 09:29:08 GMT 57.146828 64.479294 17,000 269 345 2432
2020-04-08 09:29:05 GMT 57.146942 64.488113 16,875 271 344 2432
2020-04-08 09:28:57 GMT 57.146736 64.508797 16,600 273 343 2496
2020-04-08 09:28:54 GMT 57.146595 64.517830 16,450 273 342 2496
2020-04-08 09:28:48 GMT 57.146130 64.539276 16,175 273 340 2304
2020-04-08 09:28:43 GMT 57.145897 64.549995 16,025 273 339 2176
2020-04-08 09:28:34 GMT 57.145294 64.576950 15,700 273 336 2048
2020-04-08 09:28:27 GMT 57.144875 64.597397 15,475 273 331 1728
2020-04-08 09:28:24 GMT 57.144653 64.605873 15,400 273 330 1792
2020-04-08 09:28:14 GMT 57.144058 64.634544 15,025 273 325 2496
2020-04-08 09:28:06 GMT 57.143600 64.655487 14,675 273 324 3008
2020-04-08 09:28:03 GMT 57.143417 64.663467 14,525 273 324 3136
2020-04-08 09:27:55 GMT 57.143013 64.683510 14,150 273 324 3072
2020-04-08 09:27:52 GMT 57.142822 64.692047 14,000 273 324 2944
2020-04-08 09:27:46 GMT 57.142410 64.711021 13,650 273 322 2752
2020-04-08 09:27:42 GMT 57.142220 64.719215 13,525 273 322 2496
2020-04-08 09:27:36 GMT 57.141769 64.739944 13,225 273 319 2432
2020-04-08 09:27:33 GMT 57.141632 64.746979 13,125 273 317 2432
2020-04-08 09:27:25 GMT 57.141197 64.766090 12,800 273 315 2816
2020-04-08 09:27:22 GMT 57.141056 64.774330 12,650 273 315 2880
2020-04-08 09:27:14 GMT 57.140591 64.794884 12,275 273 314 2944
2020-04-08 09:27:11 GMT 57.140404 64.803123 12,125 273 314 2944
2020-04-08 09:27:04 GMT 57.140034 64.821815 11,775 273 312 2624
2020-04-08 09:27:01 GMT 57.139847 64.830055 11,650 273 311 2304
2020-04-08 09:26:55 GMT 57.139427 64.848488 11,400 273 307 1792
2020-04-08 09:26:51 GMT 57.139206 64.857361 11,300 273 305 1472
2020-04-08 09:26:44 GMT 57.138794 64.875298 11,150 273 297 1024
2020-04-08 09:26:41 GMT 57.138611 64.883110 11,100 273 292 960
2020-04-08 09:26:34 GMT 57.138199 64.900360 10,975 273 283 1088
2020-04-08 09:26:31 GMT 57.137985 64.908028 10,925 273 279 1088
2020-04-08 09:26:21 GMT 57.137375 64.932549 10,750 273 266 1152
2020-04-08 09:26:13 GMT 57.137005 64.947891 10,625 273 257 1536
2020-04-08 09:26:10 GMT 57.136822 64.955070 10,525 273 254 1792
2020-04-08 09:26:03 GMT 57.136414 64.970741 10,275 273 248 2560
2020-04-08 09:26:00 GMT 57.136261 64.976250 10,175 273 247 2752
2020-04-08 09:25:50 GMT 57.135681 64.997688 9,625 274 245 3520
2020-04-08 09:25:43 GMT 57.135239 65.013725 9,175 274 245 3456
2020-04-08 09:25:40 GMT 57.135006 65.019745 9,000 274 245 3392
2020-04-08 09:25:32 GMT 57.134495 65.034721 8,625 274 244 3328
2020-04-08 09:25:29 GMT 57.134262 65.041382 8,450 274 244 3392
2020-04-08 09:25:22 GMT 57.133701 65.055634 8,025 275 243 3520
2020-04-08 09:25:19 GMT 57.133423 65.061569 7,875 275 243 3456
2020-04-08 09:25:11 GMT 57.132771 65.076805 7,450 275 241 3264
2020-04-08 09:25:08 GMT 57.132477 65.083008 7,300 275 240 3200
2020-04-08 09:25:02 GMT 57.131836 65.097595 6,900 275 237 3200
2020-04-08 09:24:59 GMT 57.131561 65.103867 6,750 275 236 3200
2020-04-08 09:24:51 GMT 57.131046 65.118622 6,350 273 234 3200
2020-04-08 09:24:48 GMT 57.130909 65.124382 6,200 273 233 3264
2020-04-08 09:24:38 GMT 57.130646 65.144463 5,625 270 230 3264
2020-04-08 09:24:28 GMT 57.131187 65.165054 5,050 265 226 3072
2020-04-08 09:24:20 GMT 57.132164 65.178604 4,725 260 220 2240
2020-04-08 09:24:17 GMT 57.132660 65.183434 4,625 257 217 1920
2020-04-08 09:24:10 GMT 57.134541 65.196327 4,400 251 209 1920
2020-04-08 09:24:07 GMT 57.135590 65.201797 4,300 248 204 2112
2020-04-08 09:24:00 GMT 57.138336 65.212784 4,025 240 199 2176
2020-04-08 09:23:57 GMT 57.139801 65.217331 3,925 237 196 1920
2020-04-08 09:23:50 GMT 57.143661 65.227516 3,700 232 186 1344
2020-04-08 09:23:47 GMT 57.145157 65.230804 3,650 231 181 1024
2020-04-08 09:23:39 GMT 57.149109 65.239296 3,500 229 169 1984
2020-04-08 09:23:36 GMT 57.150600 65.242401 3,400 229 166 2176
2020-04-08 09:23:26 GMT 57.155914 65.253380 3,050 229 155 2048
2020-04-08 09:23:18 GMT 57.159306 65.260559 2,800 229 146 1664
2020-04-08 09:23:15 GMT 57.160583 65.263168 2,750 229 142 1536
2020-04-08 09:23:09 GMT 57.163559 65.269348 2,550 229 132 2176
2020-04-08 09:23:06 GMT 57.164841 65.271919 2,425 229 130 2816
2020-04-08 09:22:58 GMT 57.167915 65.278191 2,025 229 132 3520
2020-04-08 09:22:55 GMT 57.169098 65.280762 1,850 229 133 3072
2020-04-08 09:22:48 GMT 57.172073 65.286858 1,475 229 135 2880
2020-04-08 09:22:45 GMT 57.173218 65.289169 1,325 228 136 3072
2020-04-08 09:22:37 GMT 57.176437 65.295647 950 228 143 2752
2020-04-08 09:22:34 GMT 57.177750 65.298355 800 228 143 2176
2020-04-08 09:22:27 GMT 57.180908 65.304710 725 229 123 64
2020-04-08 09:22:16 GMT 57.184490 65.311951 725 229 77 128
2020-04-08 09:22:11 GMT 57.185680 65.314362 0 227 54
2020-04-08 09:22:06 GMT 57.186481 65.316002 0 227 29
2020-04-08 09:22:03 GMT 57.186760 65.316582 0 227 13
2020-04-08 09:21:43 GMT 57.186916 65.316895 0 225 0
2020-04-08 09:21:36 GMT 57.186947 65.316956 0 227 5
2020-04-08 09:21:33 GMT 57.186996 65.317024 0 236 6
2020-04-08 09:21:25 GMT 57.187130 65.317307 0 275 8
2020-04-08 09:21:20 GMT 57.187130 65.317642 0 303 9
2020-04-08 09:21:16 GMT 57.187016 65.317932 0 317 9
2020-04-08 09:21:13 GMT 57.186920 65.318085 0 317 9
2020-04-08 09:21:05 GMT 57.186687 65.318481 0 317 9
2020-04-08 09:21:02 GMT 57.186607 65.318596 0 317 8
2020-04-08 09:20:54 GMT 57.186436 65.318893 0 317 5
2020-04-08 09:20:51 GMT 57.186390 65.318954 0 317 3
2020-04-08 09:20:41 GMT 57.186352 65.319038 0 317 0
2020-04-08 09:20:34 GMT 57.186356 65.319023 0 317 0
2020-04-08 09:20:31 GMT 57.186344 65.319038 0 317 3
2020-04-08 09:20:24 GMT 57.186226 65.319237 0 317 9
2020-04-08 09:20:21 GMT 57.186131 65.319366 0 317 9
2020-04-08 09:20:14 GMT 57.185921 65.319733 0 278 10
2020-04-08 09:20:11 GMT 57.185875 65.319962 0 255 11
2020-04-08 09:20:04 GMT 57.186028 65.320564 0 227 12
2020-04-08 09:20:01 GMT 57.186150 65.320824 0 227 12
2020-04-08 09:19:53 GMT 57.186401 65.321335 0 227 13
2020-04-08 09:19:50 GMT 57.186516 65.321564 0 227 14
2020-04-08 09:19:43 GMT 57.186829 65.322205 0 227 14
2020-04-08 09:19:40 GMT 57.186951 65.322433 0 227 14
2020-04-08 09:19:32 GMT 57.187271 65.323097 0 227 16
2020-04-08 09:19:29 GMT 57.187431 65.323418 0 227 16
2020-04-08 09:19:23 GMT 57.187759 65.324089 0 227 15
2020-04-08 09:19:20 GMT 57.187901 65.324371 0 227 14
2020-04-08 09:19:12 GMT 57.188187 65.324966 0 227 12
2020-04-08 09:19:08 GMT 57.188309 65.325195 0 233 12
2020-04-08 09:19:02 GMT 57.188480 65.325790 0 278 11
2020-04-08 09:18:59 GMT 57.188469 65.326057 0 295 10
2020-04-08 09:18:51 GMT 57.188259 65.326614 0 315 16
2020-04-08 09:18:48 GMT 57.188129 65.326874 0 315 18
2020-04-08 09:18:41 GMT 57.187649 65.327751 0 315 23
2020-04-08 09:18:38 GMT 57.187386 65.328255 0 312 26
2020-04-08 09:18:31 GMT 57.186790 65.329346 0 315 30
2020-04-08 09:18:28 GMT 57.186493 65.329903 0 312 29
2020-04-08 09:18:21 GMT 57.185818 65.331131 0 315 29
2020-04-08 09:18:17 GMT 57.185524 65.331703 0 312 28
2020-04-08 09:18:00 GMT 57.184013 65.334496 0 312 26
2020-04-08 09:17:57 GMT 57.183746 65.335007 0 312 25
2020-04-08 09:17:50 GMT 57.183197 65.336014 0 315 25
2020-04-08 09:17:45 GMT 57.182800 65.336754 0 312 24
2020-04-08 09:17:39 GMT 57.182369 65.337555 0 315 23
2020-04-08 09:17:12 GMT 57.180439 65.341141 0 315 22
2020-04-08 09:17:08 GMT 57.180187 65.341614 0 315 21
2020-04-08 09:16:54 GMT 57.179352 65.343163 0 315 14
2020-04-08 09:16:45 GMT 57.178974 65.343849 0 300 11
2020-04-08 09:16:34 GMT 57.178837 65.344597 0 244 9
2020-04-08 09:16:26 GMT 57.179020 65.345139 0 225 10
2020-04-08 09:16:23 GMT 57.179123 65.345306 0 225 10
2020-04-08 09:16:12 GMT 57.179489 65.345970 0 225 9

Making use of Plane Finder data

You are free to use the raw flight data, aircraft information and images provided in this report for your own purposes provided the data is correctly attributed to Plane Finder. We ask that you please credit Plane Finder and link to planefinder.net in close proximity to the content.

Optionally one of the following logos (no smaller then 150x24px) can be used and must link to planefinder.net

Embedding the Plane Finder map

You are welcome to embed the Plane Finder playback map on your website to offer visitors a more interactive experience. We suggest using the following HTML code:

<iframe src="//planefinder.net/data/report/SU1501-VP-BII-7700-squawk-2020-04-08/map" width="800" height="600" seamless="seamless"></iframe>

Where our data comes from

Plane Finder has a global network of data feeds and antenna radars that receive data broadcast directly from aircraft. The primary technologies used are ADS-B and MLAT. We also show feeds from the FAA and a FLARM glider feed.

Click here to find out more about the Plane Finder network.

How we collect our data